<?xml version="1.0" encoding="UTF-8" standalone="no" ?>
<gpx xmlns="http://www.topografix.com/GPX/1/1" xmlns:xsi="http://www.w3.org/2001/XMLSchema-instance" xsi:schemaLocation="http://www.topografix.com/GPX/1/1 http://www.topografix.com/GPX/1/1/gpx.xsd" version="1.1" creator="VisuGPX - https://www.visugpx.com">
  <metadata>
    <name>Crete des Melezes de puis Dorats </name>
    <desc><![CDATA[Projet rando groupe C pour BARS ]]></desc>
  </metadata>
  <trk>
    <name><![CDATA[N°09Turriers /Cr(ête des Melezes / avec Zabeth et Lionel]]></name>
    <trkseg>
      <trkpt lat="44.39761" lon="6.22497">
        <ele>1007.5991211</ele>
        <time>2011-07-10T07:59:36Z</time>
      </trkpt>
      <trkpt lat="44.39768" lon="6.22499">
        <ele>1012.8862305</ele>
        <time>2011-07-10T08:00:09Z</time>
      </trkpt>
      <trkpt lat="44.39768" lon="6.22499">
        <ele>1017.2121582</ele>
        <time>2011-07-10T08:00:11Z</time>
      </trkpt>
      <trkpt lat="44.39768" lon="6.22498">
        <ele>1022.0187988</ele>
        <time>2011-07-10T08:00:13Z</time>
      </trkpt>
      <trkpt lat="44.39768" lon="6.22498">
        <ele>1025.3833008</ele>
        <time>2011-07-10T08:00:15Z</time>
      </trkpt>
      <trkpt lat="44.39768" lon="6.22499">
        <ele>1029.7092285</ele>
        <time>2011-07-10T08:00:17Z</time>
      </trkpt>
      <trkpt lat="44.39768" lon="6.22499">
        <ele>1034.5158691</ele>
        <time>2011-07-10T08:00:19Z</time>
      </trkpt>
      <trkpt lat="44.39769" lon="6.22499">
        <ele>1037.3999023</ele>
        <time>2011-07-10T08:00:21Z</time>
      </trkpt>
      <trkpt lat="44.39769" lon="6.22499">
        <ele>1040.2839355</ele>
        <time>2011-07-10T08:00:23Z</time>
      </trkpt>
      <trkpt lat="44.39769" lon="6.22499">
        <ele>1043.6484375</ele>
        <time>2011-07-10T08:00:25Z</time>
      </trkpt>
      <trkpt lat="44.39769" lon="6.22499">
        <ele>1047.4936523</ele>
        <time>2011-07-10T08:00:28Z</time>
      </trkpt>
      <trkpt lat="44.39769" lon="6.22499">
        <ele>1051.3388672</ele>
        <time>2011-07-10T08:00:31Z</time>
      </trkpt>
      <trkpt lat="44.39769" lon="6.22499">
        <ele>1054.2231445</ele>
        <time>2011-07-10T08:00:34Z</time>
      </trkpt>
      <trkpt lat="44.39769" lon="6.22499">
        <ele>1058.0683594</ele>
        <time>2011-07-10T08:00:38Z</time>
      </trkpt>
      <trkpt lat="44.39769" lon="6.22499">
        <ele>1061.4328613</ele>
        <time>2011-07-10T08:00:42Z</time>
      </trkpt>
      <trkpt lat="44.39769" lon="6.22499">
        <ele>1064.7973633</ele>
        <time>2011-07-10T08:00:46Z</time>
      </trkpt>
      <trkpt lat="44.39769" lon="6.22499">
        <ele>1068.1621094</ele>
        <time>2011-07-10T08:00:51Z</time>
      </trkpt>
      <trkpt lat="44.39769" lon="6.22499">
        <ele>1071.5266113</ele>
        <time>2011-07-10T08:00:57Z</time>
      </trkpt>
      <trkpt lat="44.39769" lon="6.22499">
        <ele>1074.4106445</ele>
        <time>2011-07-10T08:01:05Z</time>
      </trkpt>
      <trkpt lat="44.39768" lon="6.22499">
        <ele>1077.7751465</ele>
        <time>2011-07-10T08:01:16Z</time>
      </trkpt>
      <trkpt lat="44.39768" lon="6.22499">
        <ele>1080.6591797</ele>
        <time>2011-07-10T08:01:30Z</time>
      </trkpt>
      <trkpt lat="44.39768" lon="6.22499">
        <ele>1084.0239258</ele>
        <time>2011-07-10T08:01:56Z</time>
      </trkpt>
      <trkpt lat="44.39769" lon="6.22499">
        <ele>1084.0239258</ele>
        <time>2011-07-10T08:03:24Z</time>
      </trkpt>
      <trkpt lat="44.39768" lon="6.22501">
        <ele>1084.0239258</ele>
        <time>2011-07-10T08:03:30Z</time>
      </trkpt>
      <trkpt lat="44.39761" lon="6.22511">
        <ele>1084.5046387</ele>
        <time>2011-07-10T08:03:46Z</time>
      </trkpt>
      <trkpt lat="44.3976" lon="6.22513">
        <ele>1084.9853516</ele>
        <time>2011-07-10T08:04:16Z</time>
      </trkpt>
      <trkpt lat="44.39752" lon="6.22525">
        <ele>1085.4658203</ele>
        <time>2011-07-10T08:04:48Z</time>
      </trkpt>
      <trkpt lat="44.39744" lon="6.22536">
        <ele>1085.9465332</ele>
        <time>2011-07-10T08:05:43Z</time>
      </trkpt>
      <trkpt lat="44.39745" lon="6.22536">
        <ele>1085.9465332</ele>
        <time>2011-07-10T08:05:44Z</time>
      </trkpt>
      <trkpt lat="44.39738" lon="6.22549">
        <ele>1085.9465332</ele>
        <time>2011-07-10T08:05:54Z</time>
      </trkpt>
      <trkpt lat="44.39735" lon="6.22551">
        <ele>1085.4658203</ele>
        <time>2011-07-10T08:05:56Z</time>
      </trkpt>
      <trkpt lat="44.3972" lon="6.22569">
        <ele>1086.9077148</ele>
        <time>2011-07-10T08:06:12Z</time>
      </trkpt>
      <trkpt lat="44.39706" lon="6.22579">
        <ele>1087.3884277</ele>
        <time>2011-07-10T08:06:26Z</time>
      </trkpt>
      <trkpt lat="44.397" lon="6.22582">
        <ele>1087.3884277</ele>
        <time>2011-07-10T08:06:31Z</time>
      </trkpt>
      <trkpt lat="44.39676" lon="6.22591">
        <ele>1090.2724609</ele>
        <time>2011-07-10T08:06:53Z</time>
      </trkpt>
      <trkpt lat="44.39669" lon="6.22592">
        <ele>1090.7529297</ele>
        <time>2011-07-10T08:06:59Z</time>
      </trkpt>
      <trkpt lat="44.39653" lon="6.2259">
        <ele>1091.7143555</ele>
        <time>2011-07-10T08:07:14Z</time>
      </trkpt>
      <trkpt lat="44.39635" lon="6.22592">
        <ele>1093.15625</ele>
        <time>2011-07-10T08:07:32Z</time>
      </trkpt>
      <trkpt lat="44.39626" lon="6.22597">
        <ele>1093.6369629</ele>
        <time>2011-07-10T08:07:42Z</time>
      </trkpt>
      <trkpt lat="44.39605" lon="6.22608">
        <ele>1095.5595703</ele>
        <time>2011-07-10T08:08:03Z</time>
      </trkpt>
      <trkpt lat="44.39593" lon="6.22609">
        <ele>1097.0014648</ele>
        <time>2011-07-10T08:08:15Z</time>
      </trkpt>
      <trkpt lat="44.39588" lon="6.22609">
        <ele>1097.4821777</ele>
        <time>2011-07-10T08:08:21Z</time>
      </trkpt>
      <trkpt lat="44.39577" lon="6.22612">
        <ele>1097.9628906</ele>
        <time>2011-07-10T08:08:33Z</time>
      </trkpt>
      <trkpt lat="44.3957" lon="6.22615">
        <ele>1098.9240723</ele>
        <time>2011-07-10T08:08:46Z</time>
      </trkpt>
      <trkpt lat="44.39556" lon="6.22613">
        <ele>1100.3664551</ele>
        <time>2011-07-10T08:09:05Z</time>
      </trkpt>
      <trkpt lat="44.3954" lon="6.22616">
        <ele>1102.2888184</ele>
        <time>2011-07-10T08:09:24Z</time>
      </trkpt>
      <trkpt lat="44.39538" lon="6.2262">
        <ele>1102.2888184</ele>
        <time>2011-07-10T08:09:41Z</time>
      </trkpt>
      <trkpt lat="44.39533" lon="6.22642">
        <ele>1102.7695313</ele>
        <time>2011-07-10T08:10:11Z</time>
      </trkpt>
      <trkpt lat="44.39536" lon="6.22636">
        <ele>1104.2116699</ele>
        <time>2011-07-10T08:11:13Z</time>
      </trkpt>
      <trkpt lat="44.39527" lon="6.22635">
        <ele>1106.1340332</ele>
        <time>2011-07-10T08:12:02Z</time>
      </trkpt>
      <trkpt lat="44.39519" lon="6.22624">
        <ele>1107.095459</ele>
        <time>2011-07-10T08:12:18Z</time>
      </trkpt>
      <trkpt lat="44.39519" lon="6.22624">
        <ele>1108.0568848</ele>
        <time>2011-07-10T08:13:05Z</time>
      </trkpt>
      <trkpt lat="44.39519" lon="6.22618">
        <ele>1110.4599609</ele>
        <time>2011-07-10T08:19:25Z</time>
      </trkpt>
      <trkpt lat="44.39524" lon="6.22609">
        <ele>1110.4599609</ele>
        <time>2011-07-10T08:19:31Z</time>
      </trkpt>
      <trkpt lat="44.39536" lon="6.22601">
        <ele>1111.9020996</ele>
        <time>2011-07-10T08:19:41Z</time>
      </trkpt>
      <trkpt lat="44.3955" lon="6.22589">
        <ele>1112.3825684</ele>
        <time>2011-07-10T08:19:58Z</time>
      </trkpt>
      <trkpt lat="44.39567" lon="6.22575">
        <ele>1113.3439941</ele>
        <time>2011-07-10T08:20:15Z</time>
      </trkpt>
      <trkpt lat="44.39591" lon="6.22562">
        <ele>1114.3051758</ele>
        <time>2011-07-10T08:20:35Z</time>
      </trkpt>
      <trkpt lat="44.39597" lon="6.22557">
        <ele>1114.7858887</ele>
        <time>2011-07-10T08:20:41Z</time>
      </trkpt>
      <trkpt lat="44.39601" lon="6.22554">
        <ele>1115.7473145</ele>
        <time>2011-07-10T08:20:45Z</time>
      </trkpt>
      <trkpt lat="44.39608" lon="6.22552">
        <ele>1116.2280273</ele>
        <time>2011-07-10T08:20:53Z</time>
      </trkpt>
      <trkpt lat="44.39613" lon="6.22547">
        <ele>1115.7473145</ele>
        <time>2011-07-10T08:20:58Z</time>
      </trkpt>
      <trkpt lat="44.39626" lon="6.22532">
        <ele>1116.7087402</ele>
        <time>2011-07-10T08:21:13Z</time>
      </trkpt>
      <trkpt lat="44.39639" lon="6.22516">
        <ele>1118.1506348</ele>
        <time>2011-07-10T08:21:33Z</time>
      </trkpt>
      <trkpt lat="44.39639" lon="6.22513">
        <ele>1118.6313477</ele>
        <time>2011-07-10T08:21:49Z</time>
      </trkpt>
      <trkpt lat="44.39636" lon="6.22513">
        <ele>1118.6313477</ele>
        <time>2011-07-10T08:21:57Z</time>
      </trkpt>
      <trkpt lat="44.39621" lon="6.22524">
        <ele>1121.034668</ele>
        <time>2011-07-10T08:22:16Z</time>
      </trkpt>
      <trkpt lat="44.396" lon="6.22529">
        <ele>1124.3991699</ele>
        <time>2011-07-10T08:22:39Z</time>
      </trkpt>
      <trkpt lat="44.39586" lon="6.22522">
        <ele>1126.3217773</ele>
        <time>2011-07-10T08:22:54Z</time>
      </trkpt>
      <trkpt lat="44.39581" lon="6.22517">
        <ele>1127.2832031</ele>
        <time>2011-07-10T08:23:00Z</time>
      </trkpt>
      <trkpt lat="44.39563" lon="6.22511">
        <ele>1129.2055664</ele>
        <time>2011-07-10T08:23:21Z</time>
      </trkpt>
      <trkpt lat="44.39552" lon="6.22511">
        <ele>1132.0898438</ele>
        <time>2011-07-10T08:23:35Z</time>
      </trkpt>
      <trkpt lat="44.39539" lon="6.22519">
        <ele>1134.4931641</ele>
        <time>2011-07-10T08:23:52Z</time>
      </trkpt>
      <trkpt lat="44.39524" lon="6.22519">
        <ele>1136.4157715</ele>
        <time>2011-07-10T08:24:08Z</time>
      </trkpt>
      <trkpt lat="44.39514" lon="6.22519">
        <ele>1136.8962402</ele>
        <time>2011-07-10T08:24:22Z</time>
      </trkpt>
      <trkpt lat="44.395" lon="6.22509">
        <ele>1138.3383789</ele>
        <time>2011-07-10T08:24:35Z</time>
      </trkpt>
      <trkpt lat="44.3949" lon="6.22501">
        <ele>1139.2995605</ele>
        <time>2011-07-10T08:24:49Z</time>
      </trkpt>
      <trkpt lat="44.39489" lon="6.22501">
        <ele>1139.2995605</ele>
        <time>2011-07-10T08:24:50Z</time>
      </trkpt>
      <trkpt lat="44.39472" lon="6.22498">
        <ele>1141.222168</ele>
        <time>2011-07-10T08:25:07Z</time>
      </trkpt>
      <trkpt lat="44.3945" lon="6.22503">
        <ele>1143.1447754</ele>
        <time>2011-07-10T08:25:31Z</time>
      </trkpt>
      <trkpt lat="44.39439" lon="6.2251">
        <ele>1144.1062012</ele>
        <time>2011-07-10T08:25:46Z</time>
      </trkpt>
      <trkpt lat="44.39426" lon="6.22519">
        <ele>1146.0288086</ele>
        <time>2011-07-10T08:26:01Z</time>
      </trkpt>
      <trkpt lat="44.39415" lon="6.22525">
        <ele>1146.9899902</ele>
        <time>2011-07-10T08:26:15Z</time>
      </trkpt>
      <trkpt lat="44.39398" lon="6.22535">
        <ele>1149.8742676</ele>
        <time>2011-07-10T08:26:36Z</time>
      </trkpt>
      <trkpt lat="44.39382" lon="6.22547">
        <ele>1151.3161621</ele>
        <time>2011-07-10T08:26:56Z</time>
      </trkpt>
      <trkpt lat="44.39361" lon="6.22547">
        <ele>1153.7194824</ele>
        <time>2011-07-10T08:27:13Z</time>
      </trkpt>
      <trkpt lat="44.39348" lon="6.2255">
        <ele>1154.2001953</ele>
        <time>2011-07-10T08:27:36Z</time>
      </trkpt>
      <trkpt lat="44.3934" lon="6.22552">
        <ele>1155.161377</ele>
        <time>2011-07-10T08:27:55Z</time>
      </trkpt>
      <trkpt lat="44.39337" lon="6.22552">
        <ele>1155.6420898</ele>
        <time>2011-07-10T08:27:58Z</time>
      </trkpt>
      <trkpt lat="44.39319" lon="6.22555">
        <ele>1157.0839844</ele>
        <time>2011-07-10T08:28:16Z</time>
      </trkpt>
      <trkpt lat="44.39301" lon="6.22558">
        <ele>1158.0454102</ele>
        <time>2011-07-10T08:28:35Z</time>
      </trkpt>
      <trkpt lat="44.39289" lon="6.22556">
        <ele>1159.4873047</ele>
        <time>2011-07-10T08:28:53Z</time>
      </trkpt>
      <trkpt lat="44.3928" lon="6.22556">
        <ele>1160.4484863</ele>
        <time>2011-07-10T08:29:16Z</time>
      </trkpt>
      <trkpt lat="44.39271" lon="6.22555">
        <ele>1159.9677734</ele>
        <time>2011-07-10T08:30:26Z</time>
      </trkpt>
      <trkpt lat="44.39258" lon="6.22562">
        <ele>1162.8518066</ele>
        <time>2011-07-10T08:30:54Z</time>
      </trkpt>
      <trkpt lat="44.39243" lon="6.22565">
        <ele>1164.7746582</ele>
        <time>2011-07-10T08:31:12Z</time>
      </trkpt>
      <trkpt lat="44.39231" lon="6.22572">
        <ele>1166.6972656</ele>
        <time>2011-07-10T08:31:29Z</time>
      </trkpt>
      <trkpt lat="44.39216" lon="6.22582">
        <ele>1169.5812988</ele>
        <time>2011-07-10T08:31:48Z</time>
      </trkpt>
      <trkpt lat="44.39206" lon="6.22583">
        <ele>1171.5036621</ele>
        <time>2011-07-10T08:32:02Z</time>
      </trkpt>
      <trkpt lat="44.39196" lon="6.22582">
        <ele>1172.4650879</ele>
        <time>2011-07-10T08:32:14Z</time>
      </trkpt>
      <trkpt lat="44.39179" lon="6.22573">
        <ele>1173.9069824</ele>
        <time>2011-07-10T08:32:30Z</time>
      </trkpt>
      <trkpt lat="44.3916" lon="6.22568">
        <ele>1176.3103027</ele>
        <time>2011-07-10T08:32:51Z</time>
      </trkpt>
      <trkpt lat="44.39146" lon="6.22569">
        <ele>1178.2329102</ele>
        <time>2011-07-10T08:33:07Z</time>
      </trkpt>
      <trkpt lat="44.39135" lon="6.22568">
        <ele>1179.6748047</ele>
        <time>2011-07-10T08:33:20Z</time>
      </trkpt>
      <trkpt lat="44.39124" lon="6.22565">
        <ele>1181.1171875</ele>
        <time>2011-07-10T08:33:30Z</time>
      </trkpt>
      <trkpt lat="44.39107" lon="6.22554">
        <ele>1182.0783691</ele>
        <time>2011-07-10T08:33:50Z</time>
      </trkpt>
      <trkpt lat="44.39098" lon="6.22539">
        <ele>1184.4816895</ele>
        <time>2011-07-10T08:34:06Z</time>
      </trkpt>
      <trkpt lat="44.39086" lon="6.22523">
        <ele>1187.3654785</ele>
        <time>2011-07-10T08:34:24Z</time>
      </trkpt>
      <trkpt lat="44.39077" lon="6.22503">
        <ele>1190.7299805</ele>
        <time>2011-07-10T08:34:45Z</time>
      </trkpt>
      <trkpt lat="44.39076" lon="6.22502">
        <ele>1190.7299805</ele>
        <time>2011-07-10T08:34:46Z</time>
      </trkpt>
      <trkpt lat="44.3907" lon="6.22494">
        <ele>1191.2106934</ele>
        <time>2011-07-10T08:34:54Z</time>
      </trkpt>
      <trkpt lat="44.39059" lon="6.22484">
        <ele>1192.652832</ele>
        <time>2011-07-10T08:35:09Z</time>
      </trkpt>
      <trkpt lat="44.39051" lon="6.22473">
        <ele>1193.6140137</ele>
        <time>2011-07-10T08:35:22Z</time>
      </trkpt>
      <trkpt lat="44.39042" lon="6.22463">
        <ele>1194.5751953</ele>
        <time>2011-07-10T08:35:39Z</time>
      </trkpt>
      <trkpt lat="44.39028" lon="6.2245">
        <ele>1196.0175781</ele>
        <time>2011-07-10T08:35:56Z</time>
      </trkpt>
      <trkpt lat="44.39013" lon="6.22442">
        <ele>1197.4594727</ele>
        <time>2011-07-10T08:36:10Z</time>
      </trkpt>
      <trkpt lat="44.39008" lon="6.2244">
        <ele>1197.9401855</ele>
        <time>2011-07-10T08:36:14Z</time>
      </trkpt>
      <trkpt lat="44.39001" lon="6.22441">
        <ele>1199.3820801</ele>
        <time>2011-07-10T08:36:32Z</time>
      </trkpt>
      <trkpt lat="44.38991" lon="6.22444">
        <ele>1201.3046875</ele>
        <time>2011-07-10T08:36:54Z</time>
      </trkpt>
      <trkpt lat="44.38978" lon="6.22423">
        <ele>1201.7854004</ele>
        <time>2011-07-10T08:37:14Z</time>
      </trkpt>
      <trkpt lat="44.38967" lon="6.22387">
        <ele>1200.3435059</ele>
        <time>2011-07-10T08:37:38Z</time>
      </trkpt>
      <trkpt lat="44.38959" lon="6.22363">
        <ele>1199.862793</ele>
        <time>2011-07-10T08:37:58Z</time>
      </trkpt>
      <trkpt lat="44.38955" lon="6.2236">
        <ele>1199.862793</ele>
        <time>2011-07-10T08:38:21Z</time>
      </trkpt>
      <trkpt lat="44.38945" lon="6.22355">
        <ele>1201.7854004</ele>
        <time>2011-07-10T08:38:34Z</time>
      </trkpt>
      <trkpt lat="44.38924" lon="6.22361">
        <ele>1203.7080078</ele>
        <time>2011-07-10T08:38:50Z</time>
      </trkpt>
      <trkpt lat="44.389" lon="6.22361">
        <ele>1207.0725098</ele>
        <time>2011-07-10T08:39:15Z</time>
      </trkpt>
      <trkpt lat="44.38899" lon="6.22361">
        <ele>1207.0725098</ele>
        <time>2011-07-10T08:39:16Z</time>
      </trkpt>
      <trkpt lat="44.38893" lon="6.22364">
        <ele>1208.0339355</ele>
        <time>2011-07-10T08:39:30Z</time>
      </trkpt>
      <trkpt lat="44.38891" lon="6.22365">
        <ele>1208.5144043</ele>
        <time>2011-07-10T08:39:32Z</time>
      </trkpt>
      <trkpt lat="44.38876" lon="6.22365">
        <ele>1209.4758301</ele>
        <time>2011-07-10T08:39:46Z</time>
      </trkpt>
      <trkpt lat="44.38857" lon="6.22371">
        <ele>1210.9177246</ele>
        <time>2011-07-10T08:40:04Z</time>
      </trkpt>
      <trkpt lat="44.38852" lon="6.22372">
        <ele>1209.4758301</ele>
        <time>2011-07-10T08:40:20Z</time>
      </trkpt>
      <trkpt lat="44.38836" lon="6.2237">
        <ele>1209.4758301</ele>
        <time>2011-07-10T08:40:37Z</time>
      </trkpt>
      <trkpt lat="44.38811" lon="6.22359">
        <ele>1212.8405762</ele>
        <time>2011-07-10T08:40:56Z</time>
      </trkpt>
      <trkpt lat="44.38805" lon="6.22357">
        <ele>1212.3598633</ele>
        <time>2011-07-10T08:41:06Z</time>
      </trkpt>
      <trkpt lat="44.3879" lon="6.22357">
        <ele>1213.3212891</ele>
        <time>2011-07-10T08:41:24Z</time>
      </trkpt>
      <trkpt lat="44.38778" lon="6.22366">
        <ele>1216.2050781</ele>
        <time>2011-07-10T08:41:42Z</time>
      </trkpt>
      <trkpt lat="44.38764" lon="6.2237">
        <ele>1219.5698242</ele>
        <time>2011-07-10T08:41:59Z</time>
      </trkpt>
      <trkpt lat="44.38753" lon="6.2237">
        <ele>1221.9729004</ele>
        <time>2011-07-10T08:42:11Z</time>
      </trkpt>
      <trkpt lat="44.38746" lon="6.2237">
        <ele>1224.3762207</ele>
        <time>2011-07-10T08:42:25Z</time>
      </trkpt>
      <trkpt lat="44.38737" lon="6.22357">
        <ele>1226.779541</ele>
        <time>2011-07-10T08:42:54Z</time>
      </trkpt>
      <trkpt lat="44.3873" lon="6.22355">
        <ele>1230.1442871</ele>
        <time>2011-07-10T08:43:09Z</time>
      </trkpt>
      <trkpt lat="44.38726" lon="6.22341">
        <ele>1233.5087891</ele>
        <time>2011-07-10T08:43:27Z</time>
      </trkpt>
      <trkpt lat="44.38721" lon="6.2233">
        <ele>1236.873291</ele>
        <time>2011-07-10T08:43:44Z</time>
      </trkpt>
      <trkpt lat="44.38715" lon="6.22327">
        <ele>1238.7961426</ele>
        <time>2011-07-10T08:44:01Z</time>
      </trkpt>
      <trkpt lat="44.38705" lon="6.22336">
        <ele>1241.6799316</ele>
        <time>2011-07-10T08:44:19Z</time>
      </trkpt>
      <trkpt lat="44.38702" lon="6.22333">
        <ele>1243.6025391</ele>
        <time>2011-07-10T08:44:26Z</time>
      </trkpt>
      <trkpt lat="44.387" lon="6.22331">
        <ele>1244.0834961</ele>
        <time>2011-07-10T08:44:44Z</time>
      </trkpt>
      <trkpt lat="44.38701" lon="6.22332">
        <ele>1244.0834961</ele>
        <time>2011-07-10T08:45:29Z</time>
      </trkpt>
      <trkpt lat="44.38696" lon="6.22331">
        <ele>1245.0446777</ele>
        <time>2011-07-10T08:46:11Z</time>
      </trkpt>
      <trkpt lat="44.38684" lon="6.22334">
        <ele>1246.9672852</ele>
        <time>2011-07-10T08:46:28Z</time>
      </trkpt>
      <trkpt lat="44.38675" lon="6.22341">
        <ele>1248.8898926</ele>
        <time>2011-07-10T08:46:43Z</time>
      </trkpt>
      <trkpt lat="44.38671" lon="6.22344">
        <ele>1249.3706055</ele>
        <time>2011-07-10T08:46:49Z</time>
      </trkpt>
      <trkpt lat="44.38665" lon="6.22351">
        <ele>1251.2932129</ele>
        <time>2011-07-10T08:47:02Z</time>
      </trkpt>
      <trkpt lat="44.38654" lon="6.22354">
        <ele>1253.6965332</ele>
        <time>2011-07-10T08:47:23Z</time>
      </trkpt>
      <trkpt lat="44.38648" lon="6.2236">
        <ele>1254.6577148</ele>
        <time>2011-07-10T08:47:39Z</time>
      </trkpt>
      <trkpt lat="44.38645" lon="6.22366">
        <ele>1255.6191406</ele>
        <time>2011-07-10T08:47:59Z</time>
      </trkpt>
      <trkpt lat="44.3864" lon="6.22375">
        <ele>1257.0610352</ele>
        <time>2011-07-10T08:48:14Z</time>
      </trkpt>
      <trkpt lat="44.38634" lon="6.22392">
        <ele>1260.4257813</ele>
        <time>2011-07-10T08:48:33Z</time>
      </trkpt>
      <trkpt lat="44.38628" lon="6.22398">
        <ele>1262.3483887</ele>
        <time>2011-07-10T08:48:46Z</time>
      </trkpt>
      <trkpt lat="44.38626" lon="6.22398">
        <ele>1262.8291016</ele>
        <time>2011-07-10T08:49:00Z</time>
      </trkpt>
      <trkpt lat="44.38623" lon="6.22398">
        <ele>1264.751709</ele>
        <time>2011-07-10T08:49:14Z</time>
      </trkpt>
      <trkpt lat="44.38623" lon="6.22399">
        <ele>1265.7131348</ele>
        <time>2011-07-10T08:49:42Z</time>
      </trkpt>
      <trkpt lat="44.38622" lon="6.22397">
        <ele>1265.7131348</ele>
        <time>2011-07-10T08:50:24Z</time>
      </trkpt>
      <trkpt lat="44.38621" lon="6.22396">
        <ele>1265.2324219</ele>
        <time>2011-07-10T08:51:09Z</time>
      </trkpt>
      <trkpt lat="44.38612" lon="6.22389">
        <ele>1265.7131348</ele>
        <time>2011-07-10T08:51:23Z</time>
      </trkpt>
      <trkpt lat="44.38605" lon="6.22384">
        <ele>1265.7131348</ele>
        <time>2011-07-10T08:51:36Z</time>
      </trkpt>
      <trkpt lat="44.38601" lon="6.22385">
        <ele>1266.6743164</ele>
        <time>2011-07-10T08:51:42Z</time>
      </trkpt>
      <trkpt lat="44.38599" lon="6.22383">
        <ele>1267.1550293</ele>
        <time>2011-07-10T08:51:45Z</time>
      </trkpt>
      <trkpt lat="44.38594" lon="6.22385">
        <ele>1268.1162109</ele>
        <time>2011-07-10T08:51:56Z</time>
      </trkpt>
      <trkpt lat="44.38596" lon="6.22389">
        <ele>1268.5969238</ele>
        <time>2011-07-10T08:52:21Z</time>
      </trkpt>
      <trkpt lat="44.38596" lon="6.22389">
        <ele>1268.1162109</ele>
        <time>2011-07-10T08:52:49Z</time>
      </trkpt>
      <trkpt lat="44.38595" lon="6.22389">
        <ele>1269.0776367</ele>
        <time>2011-07-10T08:53:39Z</time>
      </trkpt>
      <trkpt lat="44.38595" lon="6.22389">
        <ele>1269.0776367</ele>
        <time>2011-07-10T08:54:15Z</time>
      </trkpt>
      <trkpt lat="44.38595" lon="6.2239">
        <ele>1268.5969238</ele>
        <time>2011-07-10T08:55:28Z</time>
      </trkpt>
      <trkpt lat="44.38595" lon="6.2239">
        <ele>1268.5969238</ele>
        <time>2011-07-10T08:56:06Z</time>
      </trkpt>
      <trkpt lat="44.38596" lon="6.22394">
        <ele>1268.5969238</ele>
        <time>2011-07-10T08:56:19Z</time>
      </trkpt>
      <trkpt lat="44.386" lon="6.22403">
        <ele>1270.0388184</ele>
        <time>2011-07-10T08:56:33Z</time>
      </trkpt>
      <trkpt lat="44.38606" lon="6.2242">
        <ele>1271.9614258</ele>
        <time>2011-07-10T08:56:51Z</time>
      </trkpt>
      <trkpt lat="44.38611" lon="6.22438">
        <ele>1273.4035645</ele>
        <time>2011-07-10T08:57:09Z</time>
      </trkpt>
      <trkpt lat="44.38598" lon="6.22465">
        <ele>1276.2875977</ele>
        <time>2011-07-10T08:57:39Z</time>
      </trkpt>
      <trkpt lat="44.38594" lon="6.22472">
        <ele>1277.7294922</ele>
        <time>2011-07-10T08:57:46Z</time>
      </trkpt>
      <trkpt lat="44.38588" lon="6.2248">
        <ele>1279.1713867</ele>
        <time>2011-07-10T08:58:02Z</time>
      </trkpt>
      <trkpt lat="44.38575" lon="6.22485">
        <ele>1280.1328125</ele>
        <time>2011-07-10T08:58:21Z</time>
      </trkpt>
      <trkpt lat="44.38559" lon="6.22483">
        <ele>1281.574707</ele>
        <time>2011-07-10T08:58:39Z</time>
      </trkpt>
      <trkpt lat="44.38549" lon="6.22484">
        <ele>1282.5361328</ele>
        <time>2011-07-10T08:58:50Z</time>
      </trkpt>
      <trkpt lat="44.38541" lon="6.22485">
        <ele>1283.4973145</ele>
        <time>2011-07-10T08:58:57Z</time>
      </trkpt>
      <trkpt lat="44.38536" lon="6.22485">
        <ele>1283.9780273</ele>
        <time>2011-07-10T08:59:03Z</time>
      </trkpt>
      <trkpt lat="44.38533" lon="6.22484">
        <ele>1284.4587402</ele>
        <time>2011-07-10T08:59:06Z</time>
      </trkpt>
      <trkpt lat="44.38515" lon="6.22486">
        <ele>1285.4199219</ele>
        <time>2011-07-10T08:59:24Z</time>
      </trkpt>
      <trkpt lat="44.38502" lon="6.2248">
        <ele>1286.8618164</ele>
        <time>2011-07-10T08:59:40Z</time>
      </trkpt>
      <trkpt lat="44.38489" lon="6.22478">
        <ele>1287.8232422</ele>
        <time>2011-07-10T08:59:53Z</time>
      </trkpt>
      <trkpt lat="44.38483" lon="6.22478">
        <ele>1288.3039551</ele>
        <time>2011-07-10T09:00:01Z</time>
      </trkpt>
      <trkpt lat="44.38473" lon="6.22487">
        <ele>1289.2651367</ele>
        <time>2011-07-10T09:00:10Z</time>
      </trkpt>
      <trkpt lat="44.38462" lon="6.22494">
        <ele>1290.2265625</ele>
        <time>2011-07-10T09:00:24Z</time>
      </trkpt>
      <trkpt lat="44.38451" lon="6.22503">
        <ele>1291.668457</ele>
        <time>2011-07-10T09:00:37Z</time>
      </trkpt>
      <trkpt lat="44.38447" lon="6.22505">
        <ele>1292.1494141</ele>
        <time>2011-07-10T09:00:42Z</time>
      </trkpt>
      <trkpt lat="44.38431" lon="6.2251">
        <ele>1291.668457</ele>
        <time>2011-07-10T09:00:58Z</time>
      </trkpt>
      <trkpt lat="44.38425" lon="6.22513">
        <ele>1292.630127</ele>
        <time>2011-07-10T09:01:04Z</time>
      </trkpt>
      <trkpt lat="44.38414" lon="6.22524">
        <ele>1294.0720215</ele>
        <time>2011-07-10T09:01:21Z</time>
      </trkpt>
      <trkpt lat="44.38408" lon="6.22536">
        <ele>1296.9558105</ele>
        <time>2011-07-10T09:01:34Z</time>
      </trkpt>
      <trkpt lat="44.38392" lon="6.2254">
        <ele>1296.9558105</ele>
        <time>2011-07-10T09:01:52Z</time>
      </trkpt>
      <trkpt lat="44.38384" lon="6.22539">
        <ele>1296.9558105</ele>
        <time>2011-07-10T09:02:00Z</time>
      </trkpt>
      <trkpt lat="44.38373" lon="6.22544">
        <ele>1297.4365234</ele>
        <time>2011-07-10T09:02:15Z</time>
      </trkpt>
      <trkpt lat="44.38345" lon="6.22567">
        <ele>1299.3591309</ele>
        <time>2011-07-10T09:02:42Z</time>
      </trkpt>
      <trkpt lat="44.3834" lon="6.22568">
        <ele>1299.8398438</ele>
        <time>2011-07-10T09:02:47Z</time>
      </trkpt>
      <trkpt lat="44.38332" lon="6.22571">
        <ele>1300.8010254</ele>
        <time>2011-07-10T09:03:00Z</time>
      </trkpt>
      <trkpt lat="44.38322" lon="6.22582">
        <ele>1303.2043457</ele>
        <time>2011-07-10T09:03:13Z</time>
      </trkpt>
      <trkpt lat="44.38313" lon="6.22587">
        <ele>1306.0881348</ele>
        <time>2011-07-10T09:03:28Z</time>
      </trkpt>
      <trkpt lat="44.38304" lon="6.22592">
        <ele>1307.0495605</ele>
        <time>2011-07-10T09:03:38Z</time>
      </trkpt>
      <trkpt lat="44.38295" lon="6.22594">
        <ele>1308.4916992</ele>
        <time>2011-07-10T09:03:51Z</time>
      </trkpt>
      <trkpt lat="44.38273" lon="6.22592">
        <ele>1310.8950195</ele>
        <time>2011-07-10T09:04:16Z</time>
      </trkpt>
      <trkpt lat="44.38256" lon="6.22603">
        <ele>1314.2595215</ele>
        <time>2011-07-10T09:04:40Z</time>
      </trkpt>
      <trkpt lat="44.38264" lon="6.22624">
        <ele>1315.7016602</ele>
        <time>2011-07-10T09:04:57Z</time>
      </trkpt>
      <trkpt lat="44.38265" lon="6.22627">
        <ele>1315.2209473</ele>
        <time>2011-07-10T09:05:14Z</time>
      </trkpt>
      <trkpt lat="44.38261" lon="6.22644">
        <ele>1317.1435547</ele>
        <time>2011-07-10T09:05:28Z</time>
      </trkpt>
      <trkpt lat="44.3825" lon="6.22652">
        <ele>1320.0273438</ele>
        <time>2011-07-10T09:05:45Z</time>
      </trkpt>
      <trkpt lat="44.38234" lon="6.22651">
        <ele>1322.4306641</ele>
        <time>2011-07-10T09:06:07Z</time>
      </trkpt>
      <trkpt lat="44.38223" lon="6.22653">
        <ele>1324.3535156</ele>
        <time>2011-07-10T09:06:19Z</time>
      </trkpt>
      <trkpt lat="44.38212" lon="6.22666">
        <ele>1326.7568359</ele>
        <time>2011-07-10T09:06:37Z</time>
      </trkpt>
      <trkpt lat="44.38207" lon="6.22685">
        <ele>1329.1599121</ele>
        <time>2011-07-10T09:06:55Z</time>
      </trkpt>
      <trkpt lat="44.38202" lon="6.22694">
        <ele>1329.1599121</ele>
        <time>2011-07-10T09:07:02Z</time>
      </trkpt>
      <trkpt lat="44.38208" lon="6.22705">
        <ele>1330.1213379</ele>
        <time>2011-07-10T09:07:16Z</time>
      </trkpt>
      <trkpt lat="44.38214" lon="6.22712">
        <ele>1331.5632324</ele>
        <time>2011-07-10T09:07:24Z</time>
      </trkpt>
      <trkpt lat="44.38226" lon="6.22726">
        <ele>1333.4858398</ele>
        <time>2011-07-10T09:07:41Z</time>
      </trkpt>
      <trkpt lat="44.38222" lon="6.22737">
        <ele>1336.369873</ele>
        <time>2011-07-10T09:07:58Z</time>
      </trkpt>
      <trkpt lat="44.38206" lon="6.22742">
        <ele>1339.2536621</ele>
        <time>2011-07-10T09:08:18Z</time>
      </trkpt>
      <trkpt lat="44.38196" lon="6.2274">
        <ele>1341.6572266</ele>
        <time>2011-07-10T09:08:32Z</time>
      </trkpt>
      <trkpt lat="44.38188" lon="6.22738">
        <ele>1344.0605469</ele>
        <time>2011-07-10T09:08:48Z</time>
      </trkpt>
      <trkpt lat="44.38171" lon="6.22738">
        <ele>1345.5024414</ele>
        <time>2011-07-10T09:09:06Z</time>
      </trkpt>
      <trkpt lat="44.3816" lon="6.22724">
        <ele>1347.9057617</ele>
        <time>2011-07-10T09:09:25Z</time>
      </trkpt>
      <trkpt lat="44.38159" lon="6.22715">
        <ele>1351.2702637</ele>
        <time>2011-07-10T09:09:39Z</time>
      </trkpt>
      <trkpt lat="44.38152" lon="6.22703">
        <ele>1353.673584</ele>
        <time>2011-07-10T09:09:55Z</time>
      </trkpt>
      <trkpt lat="44.38135" lon="6.22704">
        <ele>1357.0383301</ele>
        <time>2011-07-10T09:10:17Z</time>
      </trkpt>
      <trkpt lat="44.38129" lon="6.22708">
        <ele>1358.4802246</ele>
        <time>2011-07-10T09:10:31Z</time>
      </trkpt>
      <trkpt lat="44.38126" lon="6.22702">
        <ele>1359.4416504</ele>
        <time>2011-07-10T09:12:14Z</time>
      </trkpt>
      <trkpt lat="44.38124" lon="6.22707">
        <ele>1359.9221191</ele>
        <time>2011-07-10T09:12:49Z</time>
      </trkpt>
      <trkpt lat="44.38127" lon="6.22724">
        <ele>1360.402832</ele>
        <time>2011-07-10T09:13:02Z</time>
      </trkpt>
      <trkpt lat="44.38134" lon="6.22744">
        <ele>1360.8835449</ele>
        <time>2011-07-10T09:13:16Z</time>
      </trkpt>
      <trkpt lat="44.38134" lon="6.22746">
        <ele>1360.8835449</ele>
        <time>2011-07-10T09:13:19Z</time>
      </trkpt>
      <trkpt lat="44.38134" lon="6.22752">
        <ele>1361.3642578</ele>
        <time>2011-07-10T09:13:21Z</time>
      </trkpt>
      <trkpt lat="44.38132" lon="6.22754">
        <ele>1361.3642578</ele>
        <time>2011-07-10T09:13:25Z</time>
      </trkpt>
      <trkpt lat="44.38143" lon="6.22776">
        <ele>1362.3254395</ele>
        <time>2011-07-10T09:13:37Z</time>
      </trkpt>
      <trkpt lat="44.38152" lon="6.22788">
        <ele>1363.767334</ele>
        <time>2011-07-10T09:13:51Z</time>
      </trkpt>
      <trkpt lat="44.38159" lon="6.22797">
        <ele>1365.6901855</ele>
        <time>2011-07-10T09:14:02Z</time>
      </trkpt>
      <trkpt lat="44.38169" lon="6.22808">
        <ele>1368.0932617</ele>
        <time>2011-07-10T09:14:15Z</time>
      </trkpt>
      <trkpt lat="44.38177" lon="6.22824">
        <ele>1370.496582</ele>
        <time>2011-07-10T09:14:35Z</time>
      </trkpt>
      <trkpt lat="44.38184" lon="6.22831">
        <ele>1372.9001465</ele>
        <time>2011-07-10T09:14:47Z</time>
      </trkpt>
      <trkpt lat="44.3819" lon="6.22838">
        <ele>1374.342041</ele>
        <time>2011-07-10T09:14:56Z</time>
      </trkpt>
      <trkpt lat="44.38197" lon="6.22857">
        <ele>1375.3032227</ele>
        <time>2011-07-10T09:15:12Z</time>
      </trkpt>
      <trkpt lat="44.38202" lon="6.22872">
        <ele>1377.2260742</ele>
        <time>2011-07-10T09:15:26Z</time>
      </trkpt>
      <trkpt lat="44.38193" lon="6.22885">
        <ele>1380.1098633</ele>
        <time>2011-07-10T09:15:41Z</time>
      </trkpt>
      <trkpt lat="44.38188" lon="6.22898">
        <ele>1383.4743652</ele>
        <time>2011-07-10T09:15:58Z</time>
      </trkpt>
      <trkpt lat="44.38183" lon="6.22908">
        <ele>1383.4743652</ele>
        <time>2011-07-10T09:16:09Z</time>
      </trkpt>
      <trkpt lat="44.3817" lon="6.22931">
        <ele>1384.435791</ele>
        <time>2011-07-10T09:16:25Z</time>
      </trkpt>
      <trkpt lat="44.38161" lon="6.22947">
        <ele>1385.3969727</ele>
        <time>2011-07-10T09:16:40Z</time>
      </trkpt>
      <trkpt lat="44.38144" lon="6.22966">
        <ele>1386.3583984</ele>
        <time>2011-07-10T09:17:01Z</time>
      </trkpt>
      <trkpt lat="44.38131" lon="6.22981">
        <ele>1385.8776855</ele>
        <time>2011-07-10T09:17:20Z</time>
      </trkpt>
      <trkpt lat="44.38125" lon="6.22994">
        <ele>1385.3969727</ele>
        <time>2011-07-10T09:17:34Z</time>
      </trkpt>
      <trkpt lat="44.38114" lon="6.23018">
        <ele>1385.3969727</ele>
        <time>2011-07-10T09:17:51Z</time>
      </trkpt>
      <trkpt lat="44.38105" lon="6.23038">
        <ele>1384.435791</ele>
        <time>2011-07-10T09:18:07Z</time>
      </trkpt>
      <trkpt lat="44.38101" lon="6.23046">
        <ele>1384.435791</ele>
        <time>2011-07-10T09:18:16Z</time>
      </trkpt>
      <trkpt lat="44.38089" lon="6.23058">
        <ele>1384.9165039</ele>
        <time>2011-07-10T09:18:29Z</time>
      </trkpt>
      <trkpt lat="44.38088" lon="6.23062">
        <ele>1383.9550781</ele>
        <time>2011-07-10T09:18:31Z</time>
      </trkpt>
      <trkpt lat="44.38077" lon="6.23069">
        <ele>1383.9550781</ele>
        <time>2011-07-10T09:18:50Z</time>
      </trkpt>
      <trkpt lat="44.38069" lon="6.23078">
        <ele>1382.0324707</ele>
        <time>2011-07-10T09:19:51Z</time>
      </trkpt>
      <trkpt lat="44.38057" lon="6.23107">
        <ele>1382.5131836</ele>
        <time>2011-07-10T09:20:12Z</time>
      </trkpt>
      <trkpt lat="44.38045" lon="6.23126">
        <ele>1384.435791</ele>
        <time>2011-07-10T09:20:32Z</time>
      </trkpt>
      <trkpt lat="44.38032" lon="6.23148">
        <ele>1386.8388672</ele>
        <time>2011-07-10T09:20:52Z</time>
      </trkpt>
      <trkpt lat="44.38023" lon="6.23162">
        <ele>1388.28125</ele>
        <time>2011-07-10T09:21:07Z</time>
      </trkpt>
      <trkpt lat="44.3801" lon="6.23179">
        <ele>1390.6843262</ele>
        <time>2011-07-10T09:21:26Z</time>
      </trkpt>
      <trkpt lat="44.37996" lon="6.23195">
        <ele>1392.6071777</ele>
        <time>2011-07-10T09:21:45Z</time>
      </trkpt>
      <trkpt lat="44.37988" lon="6.23206">
        <ele>1394.529541</ele>
        <time>2011-07-10T09:22:01Z</time>
      </trkpt>
      <trkpt lat="44.37985" lon="6.23218">
        <ele>1395.9716797</ele>
        <time>2011-07-10T09:22:17Z</time>
      </trkpt>
      <trkpt lat="44.37972" lon="6.2323">
        <ele>1398.3747559</ele>
        <time>2011-07-10T09:22:34Z</time>
      </trkpt>
      <trkpt lat="44.3796" lon="6.23246">
        <ele>1401.739502</ele>
        <time>2011-07-10T09:22:53Z</time>
      </trkpt>
      <trkpt lat="44.3795" lon="6.23255">
        <ele>1402.2199707</ele>
        <time>2011-07-10T09:23:06Z</time>
      </trkpt>
      <trkpt lat="44.37932" lon="6.23263">
        <ele>1401.739502</ele>
        <time>2011-07-10T09:23:30Z</time>
      </trkpt>
      <trkpt lat="44.37909" lon="6.2328">
        <ele>1401.2587891</ele>
        <time>2011-07-10T09:23:56Z</time>
      </trkpt>
      <trkpt lat="44.37891" lon="6.23297">
        <ele>1397.8942871</ele>
        <time>2011-07-10T09:24:20Z</time>
      </trkpt>
      <trkpt lat="44.37887" lon="6.23319">
        <ele>1395.4909668</ele>
        <time>2011-07-10T09:24:40Z</time>
      </trkpt>
      <trkpt lat="44.3787" lon="6.23359">
        <ele>1395.0102539</ele>
        <time>2011-07-10T09:25:02Z</time>
      </trkpt>
      <trkpt lat="44.3786" lon="6.23379">
        <ele>1395.9716797</ele>
        <time>2011-07-10T09:25:18Z</time>
      </trkpt>
      <trkpt lat="44.3785" lon="6.23398">
        <ele>1397.4135742</ele>
        <time>2011-07-10T09:25:38Z</time>
      </trkpt>
      <trkpt lat="44.37833" lon="6.23425">
        <ele>1400.2976074</ele>
        <time>2011-07-10T09:26:02Z</time>
      </trkpt>
      <trkpt lat="44.37829" lon="6.23439">
        <ele>1402.2199707</ele>
        <time>2011-07-10T09:26:16Z</time>
      </trkpt>
      <trkpt lat="44.37821" lon="6.23452">
        <ele>1404.6235352</ele>
        <time>2011-07-10T09:26:33Z</time>
      </trkpt>
      <trkpt lat="44.37809" lon="6.23467">
        <ele>1407.5075684</ele>
        <time>2011-07-10T09:26:52Z</time>
      </trkpt>
      <trkpt lat="44.37799" lon="6.23477">
        <ele>1408.46875</ele>
        <time>2011-07-10T09:27:06Z</time>
      </trkpt>
      <trkpt lat="44.37794" lon="6.23483">
        <ele>1409.9106445</ele>
        <time>2011-07-10T09:27:27Z</time>
      </trkpt>
      <trkpt lat="44.37781" lon="6.23488">
        <ele>1410.8720703</ele>
        <time>2011-07-10T09:27:36Z</time>
      </trkpt>
      <trkpt lat="44.37778" lon="6.23486">
        <ele>1410.8720703</ele>
        <time>2011-07-10T09:27:39Z</time>
      </trkpt>
      <trkpt lat="44.37765" lon="6.23484">
        <ele>1412.7946777</ele>
        <time>2011-07-10T09:27:57Z</time>
      </trkpt>
      <trkpt lat="44.37751" lon="6.23488">
        <ele>1413.7558594</ele>
        <time>2011-07-10T09:28:10Z</time>
      </trkpt>
      <trkpt lat="44.3773" lon="6.23496">
        <ele>1414.7172852</ele>
        <time>2011-07-10T09:28:29Z</time>
      </trkpt>
      <trkpt lat="44.37724" lon="6.23498">
        <ele>1415.197998</ele>
        <time>2011-07-10T09:28:36Z</time>
      </trkpt>
      <trkpt lat="44.37714" lon="6.23511">
        <ele>1416.6398926</ele>
        <time>2011-07-10T09:28:49Z</time>
      </trkpt>
      <trkpt lat="44.37698" lon="6.23518">
        <ele>1418.0817871</ele>
        <time>2011-07-10T09:29:06Z</time>
      </trkpt>
      <trkpt lat="44.37695" lon="6.2352">
        <ele>1417.6010742</ele>
        <time>2011-07-10T09:29:09Z</time>
      </trkpt>
      <trkpt lat="44.37687" lon="6.2354">
        <ele>1418.0817871</ele>
        <time>2011-07-10T09:29:27Z</time>
      </trkpt>
      <trkpt lat="44.37687" lon="6.23541">
        <ele>1418.0817871</ele>
        <time>2011-07-10T09:29:28Z</time>
      </trkpt>
      <trkpt lat="44.37688" lon="6.23544">
        <ele>1417.6010742</ele>
        <time>2011-07-10T09:29:30Z</time>
      </trkpt>
      <trkpt lat="44.37685" lon="6.23552">
        <ele>1417.6010742</ele>
        <time>2011-07-10T09:29:37Z</time>
      </trkpt>
      <trkpt lat="44.37676" lon="6.23559">
        <ele>1418.0817871</ele>
        <time>2011-07-10T09:29:48Z</time>
      </trkpt>
      <trkpt lat="44.37664" lon="6.23565">
        <ele>1419.5239258</ele>
        <time>2011-07-10T09:30:01Z</time>
      </trkpt>
      <trkpt lat="44.37659" lon="6.23569">
        <ele>1419.5239258</ele>
        <time>2011-07-10T09:30:08Z</time>
      </trkpt>
      <trkpt lat="44.37654" lon="6.23573">
        <ele>1420.0046387</ele>
        <time>2011-07-10T09:30:12Z</time>
      </trkpt>
      <trkpt lat="44.37649" lon="6.23575">
        <ele>1420.4853516</ele>
        <time>2011-07-10T09:30:16Z</time>
      </trkpt>
      <trkpt lat="44.37648" lon="6.23575">
        <ele>1420.9660645</ele>
        <time>2011-07-10T09:30:18Z</time>
      </trkpt>
      <trkpt lat="44.37646" lon="6.23578">
        <ele>1420.9660645</ele>
        <time>2011-07-10T09:30:21Z</time>
      </trkpt>
      <trkpt lat="44.37643" lon="6.23579">
        <ele>1420.9660645</ele>
        <time>2011-07-10T09:30:23Z</time>
      </trkpt>
      <trkpt lat="44.37622" lon="6.23584">
        <ele>1423.3693848</ele>
        <time>2011-07-10T09:30:43Z</time>
      </trkpt>
      <trkpt lat="44.3762" lon="6.23584">
        <ele>1423.8498535</ele>
        <time>2011-07-10T09:30:45Z</time>
      </trkpt>
      <trkpt lat="44.37612" lon="6.2358">
        <ele>1424.8112793</ele>
        <time>2011-07-10T09:30:53Z</time>
      </trkpt>
      <trkpt lat="44.37601" lon="6.23575">
        <ele>1426.2531738</ele>
        <time>2011-07-10T09:31:05Z</time>
      </trkpt>
      <trkpt lat="44.37587" lon="6.23572">
        <ele>1427.6950684</ele>
        <time>2011-07-10T09:31:20Z</time>
      </trkpt>
      <trkpt lat="44.37573" lon="6.23567">
        <ele>1429.1369629</ele>
        <time>2011-07-10T09:31:35Z</time>
      </trkpt>
      <trkpt lat="44.37569" lon="6.23566">
        <ele>1429.1369629</ele>
        <time>2011-07-10T09:31:39Z</time>
      </trkpt>
      <trkpt lat="44.37561" lon="6.23561">
        <ele>1430.0983887</ele>
        <time>2011-07-10T09:31:47Z</time>
      </trkpt>
      <trkpt lat="44.37559" lon="6.2356">
        <ele>1430.0983887</ele>
        <time>2011-07-10T09:31:49Z</time>
      </trkpt>
      <trkpt lat="44.37549" lon="6.23557">
        <ele>1432.0209961</ele>
        <time>2011-07-10T09:32:01Z</time>
      </trkpt>
      <trkpt lat="44.37537" lon="6.23549">
        <ele>1433.9436035</ele>
        <time>2011-07-10T09:32:17Z</time>
      </trkpt>
      <trkpt lat="44.37526" lon="6.23545">
        <ele>1435.385498</ele>
        <time>2011-07-10T09:32:30Z</time>
      </trkpt>
      <trkpt lat="44.37524" lon="6.23544">
        <ele>1435.385498</ele>
        <time>2011-07-10T09:32:33Z</time>
      </trkpt>
      <trkpt lat="44.37509" lon="6.23536">
        <ele>1436.8276367</ele>
        <time>2011-07-10T09:32:50Z</time>
      </trkpt>
      <trkpt lat="44.375" lon="6.23536">
        <ele>1437.7890625</ele>
        <time>2011-07-10T09:33:00Z</time>
      </trkpt>
      <trkpt lat="44.37483" lon="6.23536">
        <ele>1440.1923828</ele>
        <time>2011-07-10T09:33:17Z</time>
      </trkpt>
      <trkpt lat="44.37481" lon="6.23536">
        <ele>1440.1923828</ele>
        <time>2011-07-10T09:33:19Z</time>
      </trkpt>
      <trkpt lat="44.37475" lon="6.23536">
        <ele>1441.6342773</ele>
        <time>2011-07-10T09:33:26Z</time>
      </trkpt>
      <trkpt lat="44.3747" lon="6.23536">
        <ele>1442.1149902</ele>
        <time>2011-07-10T09:33:31Z</time>
      </trkpt>
      <trkpt lat="44.37458" lon="6.23536">
        <ele>1444.0375977</ele>
        <time>2011-07-10T09:33:46Z</time>
      </trkpt>
      <trkpt lat="44.37445" lon="6.23535">
        <ele>1445.9602051</ele>
        <time>2011-07-10T09:34:02Z</time>
      </trkpt>
      <trkpt lat="44.37427" lon="6.23529">
        <ele>1448.8439941</ele>
        <time>2011-07-10T09:34:22Z</time>
      </trkpt>
      <trkpt lat="44.37412" lon="6.23525">
        <ele>1451.7280273</ele>
        <time>2011-07-10T09:34:41Z</time>
      </trkpt>
      <trkpt lat="44.37399" lon="6.23518">
        <ele>1453.6508789</ele>
        <time>2011-07-10T09:34:56Z</time>
      </trkpt>
      <trkpt lat="44.37389" lon="6.23512">
        <ele>1455.0927734</ele>
        <time>2011-07-10T09:35:11Z</time>
      </trkpt>
      <trkpt lat="44.37388" lon="6.23512">
        <ele>1455.5734863</ele>
        <time>2011-07-10T09:35:13Z</time>
      </trkpt>
      <trkpt lat="44.37383" lon="6.23508">
        <ele>1456.0539551</ele>
        <time>2011-07-10T09:35:19Z</time>
      </trkpt>
      <trkpt lat="44.37375" lon="6.23505">
        <ele>1456.534668</ele>
        <time>2011-07-10T09:35:29Z</time>
      </trkpt>
      <trkpt lat="44.37369" lon="6.235">
        <ele>1457.0153809</ele>
        <time>2011-07-10T09:35:43Z</time>
      </trkpt>
      <trkpt lat="44.37366" lon="6.23496">
        <ele>1457.4960938</ele>
        <time>2011-07-10T09:36:06Z</time>
      </trkpt>
      <trkpt lat="44.37361" lon="6.23493">
        <ele>1457.4960938</ele>
        <time>2011-07-10T09:36:30Z</time>
      </trkpt>
      <trkpt lat="44.3736" lon="6.23492">
        <ele>1459.4187012</ele>
        <time>2011-07-10T09:40:13Z</time>
      </trkpt>
      <trkpt lat="44.37353" lon="6.23479">
        <ele>1460.3798828</ele>
        <time>2011-07-10T09:41:02Z</time>
      </trkpt>
      <trkpt lat="44.37352" lon="6.23478">
        <ele>1460.3798828</ele>
        <time>2011-07-10T09:41:03Z</time>
      </trkpt>
      <trkpt lat="44.37344" lon="6.23467">
        <ele>1461.8220215</ele>
        <time>2011-07-10T09:41:17Z</time>
      </trkpt>
      <trkpt lat="44.37327" lon="6.23454">
        <ele>1465.1865234</ele>
        <time>2011-07-10T09:41:43Z</time>
      </trkpt>
      <trkpt lat="44.37313" lon="6.23445">
        <ele>1468.0705566</ele>
        <time>2011-07-10T09:42:02Z</time>
      </trkpt>
      <trkpt lat="44.373" lon="6.23442">
        <ele>1469.5126953</ele>
        <time>2011-07-10T09:42:17Z</time>
      </trkpt>
      <trkpt lat="44.37281" lon="6.23438">
        <ele>1470.9545898</ele>
        <time>2011-07-10T09:42:39Z</time>
      </trkpt>
      <trkpt lat="44.37256" lon="6.23441">
        <ele>1474.3190918</ele>
        <time>2011-07-10T09:43:07Z</time>
      </trkpt>
      <trkpt lat="44.37254" lon="6.2344">
        <ele>1474.3190918</ele>
        <time>2011-07-10T09:43:10Z</time>
      </trkpt>
      <trkpt lat="44.37239" lon="6.23437">
        <ele>1476.7224121</ele>
        <time>2011-07-10T09:43:29Z</time>
      </trkpt>
      <trkpt lat="44.37227" lon="6.23431">
        <ele>1480.0869141</ele>
        <time>2011-07-10T09:43:47Z</time>
      </trkpt>
      <trkpt lat="44.37214" lon="6.23427">
        <ele>1482.9707031</ele>
        <time>2011-07-10T09:44:06Z</time>
      </trkpt>
      <trkpt lat="44.372" lon="6.23425">
        <ele>1484.8937988</ele>
        <time>2011-07-10T09:44:26Z</time>
      </trkpt>
      <trkpt lat="44.37196" lon="6.23426">
        <ele>1485.3742676</ele>
        <time>2011-07-10T09:44:37Z</time>
      </trkpt>
      <trkpt lat="44.37184" lon="6.2343">
        <ele>1487.296875</ele>
        <time>2011-07-10T09:44:52Z</time>
      </trkpt>
      <trkpt lat="44.37171" lon="6.23439">
        <ele>1489.7001953</ele>
        <time>2011-07-10T09:45:11Z</time>
      </trkpt>
      <trkpt lat="44.37163" lon="6.23441">
        <ele>1490.1809082</ele>
        <time>2011-07-10T09:45:19Z</time>
      </trkpt>
      <trkpt lat="44.37151" lon="6.23442">
        <ele>1491.1420898</ele>
        <time>2011-07-10T09:45:31Z</time>
      </trkpt>
      <trkpt lat="44.37137" lon="6.23446">
        <ele>1493.5454102</ele>
        <time>2011-07-10T09:45:48Z</time>
      </trkpt>
      <trkpt lat="44.37123" lon="6.23448">
        <ele>1495.4680176</ele>
        <time>2011-07-10T09:46:04Z</time>
      </trkpt>
      <trkpt lat="44.37115" lon="6.23445">
        <ele>1496.4294434</ele>
        <time>2011-07-10T09:46:14Z</time>
      </trkpt>
      <trkpt lat="44.37103" lon="6.23448">
        <ele>1497.390625</ele>
        <time>2011-07-10T09:46:28Z</time>
      </trkpt>
      <trkpt lat="44.37088" lon="6.23448">
        <ele>1498.3518066</ele>
        <time>2011-07-10T09:46:41Z</time>
      </trkpt>
      <trkpt lat="44.37077" lon="6.23449">
        <ele>1499.3132324</ele>
        <time>2011-07-10T09:46:55Z</time>
      </trkpt>
      <trkpt lat="44.37061" lon="6.23446">
        <ele>1502.1972656</ele>
        <time>2011-07-10T09:47:13Z</time>
      </trkpt>
      <trkpt lat="44.37047" lon="6.23442">
        <ele>1504.6005859</ele>
        <time>2011-07-10T09:47:30Z</time>
      </trkpt>
      <trkpt lat="44.37046" lon="6.23435">
        <ele>1505.0812988</ele>
        <time>2011-07-10T09:47:56Z</time>
      </trkpt>
      <trkpt lat="44.37039" lon="6.23436">
        <ele>1505.5620117</ele>
        <time>2011-07-10T09:48:21Z</time>
      </trkpt>
      <trkpt lat="44.37029" lon="6.23439">
        <ele>1507.0039063</ele>
        <time>2011-07-10T09:48:33Z</time>
      </trkpt>
      <trkpt lat="44.37008" lon="6.23443">
        <ele>1509.4072266</ele>
        <time>2011-07-10T09:48:55Z</time>
      </trkpt>
      <trkpt lat="44.36994" lon="6.2344">
        <ele>1510.3684082</ele>
        <time>2011-07-10T09:49:09Z</time>
      </trkpt>
      <trkpt lat="44.36981" lon="6.2344">
        <ele>1511.329834</ele>
        <time>2011-07-10T09:49:20Z</time>
      </trkpt>
      <trkpt lat="44.3696" lon="6.23447">
        <ele>1513.2524414</ele>
        <time>2011-07-10T09:49:42Z</time>
      </trkpt>
      <trkpt lat="44.36947" lon="6.23449">
        <ele>1515.6557617</ele>
        <time>2011-07-10T09:49:57Z</time>
      </trkpt>
      <trkpt lat="44.36946" lon="6.23449">
        <ele>1516.1364746</ele>
        <time>2011-07-10T09:49:59Z</time>
      </trkpt>
      <trkpt lat="44.3694" lon="6.23443">
        <ele>1517.0979004</ele>
        <time>2011-07-10T09:50:07Z</time>
      </trkpt>
      <trkpt lat="44.36938" lon="6.23442">
        <ele>1517.5783691</ele>
        <time>2011-07-10T09:50:09Z</time>
      </trkpt>
      <trkpt lat="44.3693" lon="6.23439">
        <ele>1518.5397949</ele>
        <time>2011-07-10T09:50:16Z</time>
      </trkpt>
      <trkpt lat="44.36916" lon="6.23434">
        <ele>1519.9816895</ele>
        <time>2011-07-10T09:50:31Z</time>
      </trkpt>
      <trkpt lat="44.36905" lon="6.2343">
        <ele>1522.8657227</ele>
        <time>2011-07-10T09:50:47Z</time>
      </trkpt>
      <trkpt lat="44.36903" lon="6.23428">
        <ele>1523.3464355</ele>
        <time>2011-07-10T09:50:51Z</time>
      </trkpt>
      <trkpt lat="44.36895" lon="6.23422">
        <ele>1525.2687988</ele>
        <time>2011-07-10T09:51:01Z</time>
      </trkpt>
      <trkpt lat="44.36887" lon="6.23421">
        <ele>1527.1916504</ele>
        <time>2011-07-10T09:51:11Z</time>
      </trkpt>
      <trkpt lat="44.36886" lon="6.23421">
        <ele>1527.1916504</ele>
        <time>2011-07-10T09:51:13Z</time>
      </trkpt>
      <trkpt lat="44.36884" lon="6.23421">
        <ele>1527.6721191</ele>
        <time>2011-07-10T09:51:15Z</time>
      </trkpt>
      <trkpt lat="44.36876" lon="6.23424">
        <ele>1528.6335449</ele>
        <time>2011-07-10T09:51:25Z</time>
      </trkpt>
      <trkpt lat="44.36876" lon="6.23434">
        <ele>1529.5947266</ele>
        <time>2011-07-10T09:51:33Z</time>
      </trkpt>
      <trkpt lat="44.36876" lon="6.23451">
        <ele>1530.5561523</ele>
        <time>2011-07-10T09:51:50Z</time>
      </trkpt>
      <trkpt lat="44.3687" lon="6.23462">
        <ele>1531.9980469</ele>
        <time>2011-07-10T09:52:03Z</time>
      </trkpt>
      <trkpt lat="44.36868" lon="6.23474">
        <ele>1533.4401855</ele>
        <time>2011-07-10T09:52:17Z</time>
      </trkpt>
      <trkpt lat="44.36866" lon="6.23489">
        <ele>1535.8435059</ele>
        <time>2011-07-10T09:52:32Z</time>
      </trkpt>
      <trkpt lat="44.36857" lon="6.23506">
        <ele>1539.2080078</ele>
        <time>2011-07-10T09:52:54Z</time>
      </trkpt>
      <trkpt lat="44.36849" lon="6.23524">
        <ele>1541.1306152</ele>
        <time>2011-07-10T09:53:12Z</time>
      </trkpt>
      <trkpt lat="44.36842" lon="6.23533">
        <ele>1544.0146484</ele>
        <time>2011-07-10T09:53:30Z</time>
      </trkpt>
      <trkpt lat="44.36837" lon="6.2354">
        <ele>1544.9758301</ele>
        <time>2011-07-10T09:53:52Z</time>
      </trkpt>
      <trkpt lat="44.36817" lon="6.23562">
        <ele>1548.3405762</ele>
        <time>2011-07-10T09:54:20Z</time>
      </trkpt>
      <trkpt lat="44.36797" lon="6.23579">
        <ele>1550.2634277</ele>
        <time>2011-07-10T09:54:46Z</time>
      </trkpt>
      <trkpt lat="44.36786" lon="6.23588">
        <ele>1552.6665039</ele>
        <time>2011-07-10T09:55:02Z</time>
      </trkpt>
      <trkpt lat="44.36772" lon="6.2358">
        <ele>1554.5891113</ele>
        <time>2011-07-10T09:55:18Z</time>
      </trkpt>
      <trkpt lat="44.36764" lon="6.23573">
        <ele>1556.0310059</ele>
        <time>2011-07-10T09:55:35Z</time>
      </trkpt>
      <trkpt lat="44.36764" lon="6.23572">
        <ele>1556.9924316</ele>
        <time>2011-07-10T09:56:03Z</time>
      </trkpt>
      <trkpt lat="44.36764" lon="6.23568">
        <ele>1557.4731445</ele>
        <time>2011-07-10T09:56:27Z</time>
      </trkpt>
      <trkpt lat="44.36766" lon="6.23553">
        <ele>1558.9150391</ele>
        <time>2011-07-10T09:56:42Z</time>
      </trkpt>
      <trkpt lat="44.36766" lon="6.23534">
        <ele>1559.395752</ele>
        <time>2011-07-10T09:56:54Z</time>
      </trkpt>
      <trkpt lat="44.36766" lon="6.23522">
        <ele>1560.3569336</ele>
        <time>2011-07-10T09:57:09Z</time>
      </trkpt>
      <trkpt lat="44.3676" lon="6.235">
        <ele>1561.3183594</ele>
        <time>2011-07-10T09:57:24Z</time>
      </trkpt>
      <trkpt lat="44.3675" lon="6.23485">
        <ele>1562.279541</ele>
        <time>2011-07-10T09:57:31Z</time>
      </trkpt>
      <trkpt lat="44.36742" lon="6.23477">
        <ele>1563.2409668</ele>
        <time>2011-07-10T09:57:42Z</time>
      </trkpt>
      <trkpt lat="44.36735" lon="6.23466">
        <ele>1564.2023926</ele>
        <time>2011-07-10T09:57:56Z</time>
      </trkpt>
      <trkpt lat="44.36728" lon="6.23459">
        <ele>1565.1638184</ele>
        <time>2011-07-10T09:58:07Z</time>
      </trkpt>
      <trkpt lat="44.36718" lon="6.23459">
        <ele>1566.125</ele>
        <time>2011-07-10T09:58:18Z</time>
      </trkpt>
      <trkpt lat="44.36704" lon="6.23456">
        <ele>1567.5668945</ele>
        <time>2011-07-10T09:58:34Z</time>
      </trkpt>
      <trkpt lat="44.36694" lon="6.23453">
        <ele>1569.9702148</ele>
        <time>2011-07-10T09:58:51Z</time>
      </trkpt>
      <trkpt lat="44.36688" lon="6.23452">
        <ele>1571.4121094</ele>
        <time>2011-07-10T09:59:03Z</time>
      </trkpt>
      <trkpt lat="44.36678" lon="6.23445">
        <ele>1573.8154297</ele>
        <time>2011-07-10T09:59:18Z</time>
      </trkpt>
      <trkpt lat="44.36669" lon="6.23444">
        <ele>1576.21875</ele>
        <time>2011-07-10T09:59:29Z</time>
      </trkpt>
      <trkpt lat="44.3666" lon="6.23436">
        <ele>1578.1413574</ele>
        <time>2011-07-10T09:59:44Z</time>
      </trkpt>
      <trkpt lat="44.36648" lon="6.23433">
        <ele>1579.583252</ele>
        <time>2011-07-10T09:59:58Z</time>
      </trkpt>
      <trkpt lat="44.36646" lon="6.23431">
        <ele>1580.064209</ele>
        <time>2011-07-10T10:00:02Z</time>
      </trkpt>
      <trkpt lat="44.36641" lon="6.2342">
        <ele>1581.5061035</ele>
        <time>2011-07-10T10:00:16Z</time>
      </trkpt>
      <trkpt lat="44.36634" lon="6.23413">
        <ele>1582.947998</ele>
        <time>2011-07-10T10:00:28Z</time>
      </trkpt>
      <trkpt lat="44.36628" lon="6.23408">
        <ele>1583.9094238</ele>
        <time>2011-07-10T10:00:35Z</time>
      </trkpt>
      <trkpt lat="44.36619" lon="6.234">
        <ele>1585.3513184</ele>
        <time>2011-07-10T10:00:49Z</time>
      </trkpt>
      <trkpt lat="44.36607" lon="6.23394">
        <ele>1587.2739258</ele>
        <time>2011-07-10T10:01:05Z</time>
      </trkpt>
      <trkpt lat="44.36591" lon="6.23391">
        <ele>1590.157959</ele>
        <time>2011-07-10T10:01:25Z</time>
      </trkpt>
      <trkpt lat="44.36582" lon="6.23389">
        <ele>1590.6384277</ele>
        <time>2011-07-10T10:01:38Z</time>
      </trkpt>
      <trkpt lat="44.36568" lon="6.23385">
        <ele>1592.5612793</ele>
        <time>2011-07-10T10:01:55Z</time>
      </trkpt>
      <trkpt lat="44.36555" lon="6.23385">
        <ele>1595.4450684</ele>
        <time>2011-07-10T10:02:13Z</time>
      </trkpt>
      <trkpt lat="44.36544" lon="6.23384">
        <ele>1597.8486328</ele>
        <time>2011-07-10T10:02:25Z</time>
      </trkpt>
      <trkpt lat="44.36532" lon="6.23385">
        <ele>1599.2905273</ele>
        <time>2011-07-10T10:02:41Z</time>
      </trkpt>
      <trkpt lat="44.36521" lon="6.23379">
        <ele>1601.2131348</ele>
        <time>2011-07-10T10:02:58Z</time>
      </trkpt>
      <trkpt lat="44.36508" lon="6.23377">
        <ele>1603.6164551</ele>
        <time>2011-07-10T10:03:16Z</time>
      </trkpt>
      <trkpt lat="44.36497" lon="6.23379">
        <ele>1606.5002441</ele>
        <time>2011-07-10T10:03:32Z</time>
      </trkpt>
      <trkpt lat="44.36486" lon="6.23377">
        <ele>1607.4616699</ele>
        <time>2011-07-10T10:03:46Z</time>
      </trkpt>
      <trkpt lat="44.36475" lon="6.23373">
        <ele>1608.9035645</ele>
        <time>2011-07-10T10:04:01Z</time>
      </trkpt>
      <trkpt lat="44.36462" lon="6.23369">
        <ele>1610.8261719</ele>
        <time>2011-07-10T10:04:16Z</time>
      </trkpt>
      <trkpt lat="44.36457" lon="6.2337">
        <ele>1611.7875977</ele>
        <time>2011-07-10T10:04:31Z</time>
      </trkpt>
      <trkpt lat="44.36454" lon="6.23371">
        <ele>1612.7490234</ele>
        <time>2011-07-10T10:05:09Z</time>
      </trkpt>
      <trkpt lat="44.36453" lon="6.23369">
        <ele>1613.2297363</ele>
        <time>2011-07-10T10:07:43Z</time>
      </trkpt>
      <trkpt lat="44.36449" lon="6.23381">
        <ele>1612.7490234</ele>
        <time>2011-07-10T10:08:57Z</time>
      </trkpt>
      <trkpt lat="44.36437" lon="6.23403">
        <ele>1612.2683105</ele>
        <time>2011-07-10T10:09:20Z</time>
      </trkpt>
      <trkpt lat="44.36434" lon="6.23411">
        <ele>1613.7102051</ele>
        <time>2011-07-10T10:09:31Z</time>
      </trkpt>
      <trkpt lat="44.36428" lon="6.23425">
        <ele>1612.7490234</ele>
        <time>2011-07-10T10:09:43Z</time>
      </trkpt>
      <trkpt lat="44.36423" lon="6.2344">
        <ele>1612.2683105</ele>
        <time>2011-07-10T10:09:57Z</time>
      </trkpt>
      <trkpt lat="44.36414" lon="6.23469">
        <ele>1613.7102051</ele>
        <time>2011-07-10T10:10:17Z</time>
      </trkpt>
      <trkpt lat="44.36404" lon="6.23506">
        <ele>1614.190918</ele>
        <time>2011-07-10T10:10:43Z</time>
      </trkpt>
      <trkpt lat="44.36401" lon="6.2355">
        <ele>1616.5942383</ele>
        <time>2011-07-10T10:11:15Z</time>
      </trkpt>
      <trkpt lat="44.36404" lon="6.23579">
        <ele>1618.0361328</ele>
        <time>2011-07-10T10:11:37Z</time>
      </trkpt>
      <trkpt lat="44.364" lon="6.23616">
        <ele>1620.4394531</ele>
        <time>2011-07-10T10:12:02Z</time>
      </trkpt>
      <trkpt lat="44.36396" lon="6.23644">
        <ele>1621.4006348</ele>
        <time>2011-07-10T10:12:22Z</time>
      </trkpt>
      <trkpt lat="44.36395" lon="6.23646">
        <ele>1621.4006348</ele>
        <time>2011-07-10T10:12:23Z</time>
      </trkpt>
      <trkpt lat="44.36391" lon="6.23666">
        <ele>1622.3620605</ele>
        <time>2011-07-10T10:12:36Z</time>
      </trkpt>
      <trkpt lat="44.36387" lon="6.23675">
        <ele>1622.8427734</ele>
        <time>2011-07-10T10:12:44Z</time>
      </trkpt>
      <trkpt lat="44.3638" lon="6.237">
        <ele>1623.8039551</ele>
        <time>2011-07-10T10:13:00Z</time>
      </trkpt>
      <trkpt lat="44.3638" lon="6.23707">
        <ele>1623.3234863</ele>
        <time>2011-07-10T10:13:05Z</time>
      </trkpt>
      <trkpt lat="44.36374" lon="6.2372">
        <ele>1624.284668</ele>
        <time>2011-07-10T10:13:15Z</time>
      </trkpt>
      <trkpt lat="44.36367" lon="6.23732">
        <ele>1624.284668</ele>
        <time>2011-07-10T10:13:25Z</time>
      </trkpt>
      <trkpt lat="44.36359" lon="6.23742">
        <ele>1625.7265625</ele>
        <time>2011-07-10T10:13:41Z</time>
      </trkpt>
      <trkpt lat="44.36357" lon="6.23741">
        <ele>1627.1687012</ele>
        <time>2011-07-10T10:14:07Z</time>
      </trkpt>
      <trkpt lat="44.36357" lon="6.2374">
        <ele>1627.6491699</ele>
        <time>2011-07-10T10:14:17Z</time>
      </trkpt>
      <trkpt lat="44.36357" lon="6.2374">
        <ele>1626.2072754</ele>
        <time>2011-07-10T10:14:19Z</time>
      </trkpt>
      <trkpt lat="44.36356" lon="6.23741">
        <ele>1626.6879883</ele>
        <time>2011-07-10T10:14:53Z</time>
      </trkpt>
      <trkpt lat="44.36356" lon="6.23741">
        <ele>1625.2458496</ele>
        <time>2011-07-10T10:14:55Z</time>
      </trkpt>
      <trkpt lat="44.36356" lon="6.23761">
        <ele>1625.7265625</ele>
        <time>2011-07-10T10:15:13Z</time>
      </trkpt>
      <trkpt lat="44.36356" lon="6.23765">
        <ele>1623.8039551</ele>
        <time>2011-07-10T10:15:16Z</time>
      </trkpt>
      <trkpt lat="44.36355" lon="6.23767">
        <ele>1625.2458496</ele>
        <time>2011-07-10T10:15:18Z</time>
      </trkpt>
      <trkpt lat="44.3635" lon="6.23778">
        <ele>1623.3234863</ele>
        <time>2011-07-10T10:15:29Z</time>
      </trkpt>
      <trkpt lat="44.36336" lon="6.23792">
        <ele>1622.3620605</ele>
        <time>2011-07-10T10:15:54Z</time>
      </trkpt>
      <trkpt lat="44.36335" lon="6.23795">
        <ele>1621.4006348</ele>
        <time>2011-07-10T10:15:58Z</time>
      </trkpt>
      <trkpt lat="44.36318" lon="6.23818">
        <ele>1620.920166</ele>
        <time>2011-07-10T10:16:20Z</time>
      </trkpt>
      <trkpt lat="44.36311" lon="6.2383">
        <ele>1621.4006348</ele>
        <time>2011-07-10T10:16:30Z</time>
      </trkpt>
      <trkpt lat="44.36296" lon="6.23853">
        <ele>1620.920166</ele>
        <time>2011-07-10T10:16:51Z</time>
      </trkpt>
      <trkpt lat="44.36287" lon="6.23867">
        <ele>1621.4006348</ele>
        <time>2011-07-10T10:17:07Z</time>
      </trkpt>
      <trkpt lat="44.36278" lon="6.23884">
        <ele>1621.8813477</ele>
        <time>2011-07-10T10:17:20Z</time>
      </trkpt>
      <trkpt lat="44.36278" lon="6.23887">
        <ele>1621.8813477</ele>
        <time>2011-07-10T10:17:22Z</time>
      </trkpt>
      <trkpt lat="44.36275" lon="6.2389">
        <ele>1621.4006348</ele>
        <time>2011-07-10T10:17:25Z</time>
      </trkpt>
      <trkpt lat="44.36267" lon="6.23905">
        <ele>1622.3620605</ele>
        <time>2011-07-10T10:17:39Z</time>
      </trkpt>
      <trkpt lat="44.36259" lon="6.23924">
        <ele>1622.8427734</ele>
        <time>2011-07-10T10:17:53Z</time>
      </trkpt>
      <trkpt lat="44.36258" lon="6.23933">
        <ele>1622.3620605</ele>
        <time>2011-07-10T10:17:59Z</time>
      </trkpt>
      <trkpt lat="44.36253" lon="6.23945">
        <ele>1622.3620605</ele>
        <time>2011-07-10T10:18:07Z</time>
      </trkpt>
      <trkpt lat="44.36249" lon="6.23968">
        <ele>1622.3620605</ele>
        <time>2011-07-10T10:18:21Z</time>
      </trkpt>
      <trkpt lat="44.36249" lon="6.23977">
        <ele>1622.8427734</ele>
        <time>2011-07-10T10:18:28Z</time>
      </trkpt>
      <trkpt lat="44.36248" lon="6.2398">
        <ele>1623.3234863</ele>
        <time>2011-07-10T10:18:30Z</time>
      </trkpt>
      <trkpt lat="44.36244" lon="6.23997">
        <ele>1625.7265625</ele>
        <time>2011-07-10T10:18:41Z</time>
      </trkpt>
      <trkpt lat="44.36242" lon="6.24012">
        <ele>1628.6108398</ele>
        <time>2011-07-10T10:18:55Z</time>
      </trkpt>
      <trkpt lat="44.36241" lon="6.24022">
        <ele>1631.9753418</ele>
        <time>2011-07-10T10:19:11Z</time>
      </trkpt>
      <trkpt lat="44.36241" lon="6.24025">
        <ele>1633.4172363</ele>
        <time>2011-07-10T10:19:15Z</time>
      </trkpt>
      <trkpt lat="44.36243" lon="6.24038">
        <ele>1636.3012695</ele>
        <time>2011-07-10T10:19:29Z</time>
      </trkpt>
      <trkpt lat="44.36243" lon="6.24044">
        <ele>1638.223877</ele>
        <time>2011-07-10T10:19:35Z</time>
      </trkpt>
      <trkpt lat="44.3624" lon="6.24048">
        <ele>1638.223877</ele>
        <time>2011-07-10T10:19:38Z</time>
      </trkpt>
      <trkpt lat="44.36234" lon="6.24065">
        <ele>1641.107666</ele>
        <time>2011-07-10T10:19:55Z</time>
      </trkpt>
      <trkpt lat="44.36225" lon="6.24079">
        <ele>1643.5109863</ele>
        <time>2011-07-10T10:20:11Z</time>
      </trkpt>
      <trkpt lat="44.36217" lon="6.24089">
        <ele>1644.953125</ele>
        <time>2011-07-10T10:20:22Z</time>
      </trkpt>
      <trkpt lat="44.3621" lon="6.24102">
        <ele>1645.4338379</ele>
        <time>2011-07-10T10:20:42Z</time>
      </trkpt>
      <trkpt lat="44.36207" lon="6.24104">
        <ele>1646.8757324</ele>
        <time>2011-07-10T10:20:45Z</time>
      </trkpt>
      <trkpt lat="44.36204" lon="6.24106">
        <ele>1647.3564453</ele>
        <time>2011-07-10T10:21:05Z</time>
      </trkpt>
      <trkpt lat="44.362" lon="6.24107">
        <ele>1648.317627</ele>
        <time>2011-07-10T10:21:32Z</time>
      </trkpt>
      <trkpt lat="44.36201" lon="6.24113">
        <ele>1648.7983398</ele>
        <time>2011-07-10T10:22:26Z</time>
      </trkpt>
      <trkpt lat="44.36204" lon="6.24112">
        <ele>1648.7983398</ele>
        <time>2011-07-10T10:23:09Z</time>
      </trkpt>
      <trkpt lat="44.36202" lon="6.2411">
        <ele>1648.7983398</ele>
        <time>2011-07-10T10:23:32Z</time>
      </trkpt>
      <trkpt lat="44.36203" lon="6.24109">
        <ele>1648.317627</ele>
        <time>2011-07-10T10:23:50Z</time>
      </trkpt>
      <trkpt lat="44.36202" lon="6.24112">
        <ele>1647.3564453</ele>
        <time>2011-07-10T10:24:15Z</time>
      </trkpt>
      <trkpt lat="44.36201" lon="6.24109">
        <ele>1644.953125</ele>
        <time>2011-07-10T10:24:58Z</time>
      </trkpt>
      <trkpt lat="44.36201" lon="6.24108">
        <ele>1648.317627</ele>
        <time>2011-07-10T10:25:00Z</time>
      </trkpt>
      <trkpt lat="44.36202" lon="6.24109">
        <ele>1646.3952637</ele>
        <time>2011-07-10T10:25:02Z</time>
      </trkpt>
      <trkpt lat="44.36203" lon="6.24109">
        <ele>1648.317627</ele>
        <time>2011-07-10T10:31:15Z</time>
      </trkpt>
      <trkpt lat="44.36203" lon="6.24109">
        <ele>1646.8757324</ele>
        <time>2011-07-10T10:31:17Z</time>
      </trkpt>
      <trkpt lat="44.36203" lon="6.24109">
        <ele>1648.7983398</ele>
        <time>2011-07-10T10:31:26Z</time>
      </trkpt>
      <trkpt lat="44.36203" lon="6.24109">
        <ele>1647.3564453</ele>
        <time>2011-07-10T10:31:28Z</time>
      </trkpt>
      <trkpt lat="44.36203" lon="6.24109">
        <ele>1648.317627</ele>
        <time>2011-07-10T10:32:35Z</time>
      </trkpt>
      <trkpt lat="44.36202" lon="6.2411">
        <ele>1648.317627</ele>
        <time>2011-07-10T10:33:32Z</time>
      </trkpt>
      <trkpt lat="44.36202" lon="6.2411">
        <ele>1648.317627</ele>
        <time>2011-07-10T10:33:41Z</time>
      </trkpt>
      <trkpt lat="44.36202" lon="6.24106">
        <ele>1647.3564453</ele>
        <time>2011-07-10T10:34:25Z</time>
      </trkpt>
      <trkpt lat="44.36202" lon="6.24109">
        <ele>1650.7209473</ele>
        <time>2011-07-10T11:07:45Z</time>
      </trkpt>
      <trkpt lat="44.36202" lon="6.24109">
        <ele>1650.7209473</ele>
        <time>2011-07-10T11:07:46Z</time>
      </trkpt>
      <trkpt lat="44.36189" lon="6.2411">
        <ele>1650.7209473</ele>
        <time>2011-07-10T11:08:27Z</time>
      </trkpt>
      <trkpt lat="44.36184" lon="6.24108">
        <ele>1651.2016602</ele>
        <time>2011-07-10T11:08:38Z</time>
      </trkpt>
      <trkpt lat="44.36179" lon="6.24109">
        <ele>1650.7209473</ele>
        <time>2011-07-10T11:08:42Z</time>
      </trkpt>
      <trkpt lat="44.36169" lon="6.24112">
        <ele>1650.7209473</ele>
        <time>2011-07-10T11:08:53Z</time>
      </trkpt>
      <trkpt lat="44.3616" lon="6.24122">
        <ele>1652.1628418</ele>
        <time>2011-07-10T11:09:09Z</time>
      </trkpt>
      <trkpt lat="44.36158" lon="6.24125">
        <ele>1652.6435547</ele>
        <time>2011-07-10T11:09:14Z</time>
      </trkpt>
      <trkpt lat="44.36153" lon="6.24139">
        <ele>1653.6049805</ele>
        <time>2011-07-10T11:09:28Z</time>
      </trkpt>
      <trkpt lat="44.36142" lon="6.24162">
        <ele>1656.0080566</ele>
        <time>2011-07-10T11:09:48Z</time>
      </trkpt>
      <trkpt lat="44.36135" lon="6.24168">
        <ele>1656.0080566</ele>
        <time>2011-07-10T11:10:04Z</time>
      </trkpt>
      <trkpt lat="44.36133" lon="6.24171">
        <ele>1655.5275879</ele>
        <time>2011-07-10T11:10:12Z</time>
      </trkpt>
      <trkpt lat="44.36135" lon="6.24167">
        <ele>1656.0080566</ele>
        <time>2011-07-10T11:10:23Z</time>
      </trkpt>
      <trkpt lat="44.36136" lon="6.2417">
        <ele>1656.4887695</ele>
        <time>2011-07-10T11:10:52Z</time>
      </trkpt>
      <trkpt lat="44.3614" lon="6.24168">
        <ele>1656.9694824</ele>
        <time>2011-07-10T11:13:29Z</time>
      </trkpt>
      <trkpt lat="44.36136" lon="6.24171">
        <ele>1656.4887695</ele>
        <time>2011-07-10T11:13:38Z</time>
      </trkpt>
      <trkpt lat="44.36122" lon="6.24182">
        <ele>1657.9309082</ele>
        <time>2011-07-10T11:13:54Z</time>
      </trkpt>
      <trkpt lat="44.36122" lon="6.24184">
        <ele>1657.9309082</ele>
        <time>2011-07-10T11:13:55Z</time>
      </trkpt>
      <trkpt lat="44.36118" lon="6.24201">
        <ele>1658.8920898</ele>
        <time>2011-07-10T11:14:08Z</time>
      </trkpt>
      <trkpt lat="44.36117" lon="6.24206">
        <ele>1659.3728027</ele>
        <time>2011-07-10T11:14:13Z</time>
      </trkpt>
      <trkpt lat="44.3611" lon="6.24209">
        <ele>1661.2956543</ele>
        <time>2011-07-10T11:14:24Z</time>
      </trkpt>
      <trkpt lat="44.36102" lon="6.24212">
        <ele>1661.7763672</ele>
        <time>2011-07-10T11:14:40Z</time>
      </trkpt>
      <trkpt lat="44.36109" lon="6.24218">
        <ele>1661.2956543</ele>
        <time>2011-07-10T11:14:56Z</time>
      </trkpt>
      <trkpt lat="44.36109" lon="6.24235">
        <ele>1663.2182617</ele>
        <time>2011-07-10T11:15:10Z</time>
      </trkpt>
      <trkpt lat="44.36107" lon="6.24242">
        <ele>1663.6987305</ele>
        <time>2011-07-10T11:15:16Z</time>
      </trkpt>
      <trkpt lat="44.36107" lon="6.24248">
        <ele>1664.1794434</ele>
        <time>2011-07-10T11:15:21Z</time>
      </trkpt>
      <trkpt lat="44.36102" lon="6.24262">
        <ele>1665.621582</ele>
        <time>2011-07-10T11:15:36Z</time>
      </trkpt>
      <trkpt lat="44.36094" lon="6.24271">
        <ele>1666.5827637</ele>
        <time>2011-07-10T11:15:52Z</time>
      </trkpt>
      <trkpt lat="44.36091" lon="6.24279">
        <ele>1666.1020508</ele>
        <time>2011-07-10T11:16:07Z</time>
      </trkpt>
      <trkpt lat="44.36086" lon="6.24296">
        <ele>1663.2182617</ele>
        <time>2011-07-10T11:16:22Z</time>
      </trkpt>
      <trkpt lat="44.36081" lon="6.24315">
        <ele>1663.2182617</ele>
        <time>2011-07-10T11:16:37Z</time>
      </trkpt>
      <trkpt lat="44.36081" lon="6.24318">
        <ele>1663.2182617</ele>
        <time>2011-07-10T11:16:49Z</time>
      </trkpt>
      <trkpt lat="44.36073" lon="6.24335">
        <ele>1662.2568359</ele>
        <time>2011-07-10T11:17:07Z</time>
      </trkpt>
      <trkpt lat="44.36072" lon="6.24338">
        <ele>1660.8149414</ele>
        <time>2011-07-10T11:17:11Z</time>
      </trkpt>
      <trkpt lat="44.36061" lon="6.24357">
        <ele>1661.7763672</ele>
        <time>2011-07-10T11:17:33Z</time>
      </trkpt>
      <trkpt lat="44.36055" lon="6.2437">
        <ele>1660.3342285</ele>
        <time>2011-07-10T11:18:00Z</time>
      </trkpt>
      <trkpt lat="44.36057" lon="6.24377">
        <ele>1662.2568359</ele>
        <time>2011-07-10T11:18:54Z</time>
      </trkpt>
      <trkpt lat="44.36057" lon="6.24378">
        <ele>1660.8149414</ele>
        <time>2011-07-10T11:19:01Z</time>
      </trkpt>
      <trkpt lat="44.36057" lon="6.24378">
        <ele>1662.2568359</ele>
        <time>2011-07-10T11:19:03Z</time>
      </trkpt>
      <trkpt lat="44.36055" lon="6.2437">
        <ele>1661.7763672</ele>
        <time>2011-07-10T11:19:36Z</time>
      </trkpt>
      <trkpt lat="44.36054" lon="6.24371">
        <ele>1661.2956543</ele>
        <time>2011-07-10T11:20:30Z</time>
      </trkpt>
      <trkpt lat="44.36052" lon="6.24385">
        <ele>1661.2956543</ele>
        <time>2011-07-10T11:21:32Z</time>
      </trkpt>
      <trkpt lat="44.36057" lon="6.24395">
        <ele>1659.8532715</ele>
        <time>2011-07-10T11:21:50Z</time>
      </trkpt>
      <trkpt lat="44.36058" lon="6.244">
        <ele>1659.3728027</ele>
        <time>2011-07-10T11:21:55Z</time>
      </trkpt>
      <trkpt lat="44.3606" lon="6.24401">
        <ele>1657.9309082</ele>
        <time>2011-07-10T11:22:12Z</time>
      </trkpt>
      <trkpt lat="44.36061" lon="6.244">
        <ele>1658.411377</ele>
        <time>2011-07-10T11:22:42Z</time>
      </trkpt>
      <trkpt lat="44.36061" lon="6.244">
        <ele>1658.8920898</ele>
        <time>2011-07-10T11:23:25Z</time>
      </trkpt>
      <trkpt lat="44.36066" lon="6.24379">
        <ele>1658.8920898</ele>
        <time>2011-07-10T11:23:43Z</time>
      </trkpt>
      <trkpt lat="44.36073" lon="6.24355">
        <ele>1660.3342285</ele>
        <time>2011-07-10T11:24:06Z</time>
      </trkpt>
      <trkpt lat="44.36077" lon="6.24331">
        <ele>1661.7763672</ele>
        <time>2011-07-10T11:24:27Z</time>
      </trkpt>
      <trkpt lat="44.36078" lon="6.24326">
        <ele>1662.2568359</ele>
        <time>2011-07-10T11:24:32Z</time>
      </trkpt>
      <trkpt lat="44.36087" lon="6.24312">
        <ele>1663.6987305</ele>
        <time>2011-07-10T11:24:52Z</time>
      </trkpt>
      <trkpt lat="44.36089" lon="6.24311">
        <ele>1662.7375488</ele>
        <time>2011-07-10T11:25:25Z</time>
      </trkpt>
      <trkpt lat="44.36089" lon="6.24311">
        <ele>1664.1794434</ele>
        <time>2011-07-10T11:25:27Z</time>
      </trkpt>
      <trkpt lat="44.36091" lon="6.24303">
        <ele>1663.2182617</ele>
        <time>2011-07-10T11:27:04Z</time>
      </trkpt>
      <trkpt lat="44.36091" lon="6.24303">
        <ele>1662.7375488</ele>
        <time>2011-07-10T11:28:02Z</time>
      </trkpt>
      <trkpt lat="44.36092" lon="6.24303">
        <ele>1664.6601563</ele>
        <time>2011-07-10T11:28:29Z</time>
      </trkpt>
      <trkpt lat="44.36099" lon="6.24288">
        <ele>1662.7375488</ele>
        <time>2011-07-10T11:29:22Z</time>
      </trkpt>
      <trkpt lat="44.36102" lon="6.24276">
        <ele>1662.7375488</ele>
        <time>2011-07-10T11:29:30Z</time>
      </trkpt>
      <trkpt lat="44.36112" lon="6.24243">
        <ele>1661.2956543</ele>
        <time>2011-07-10T11:29:53Z</time>
      </trkpt>
      <trkpt lat="44.36112" lon="6.24231">
        <ele>1660.8149414</ele>
        <time>2011-07-10T11:30:01Z</time>
      </trkpt>
      <trkpt lat="44.36116" lon="6.24214">
        <ele>1660.3342285</ele>
        <time>2011-07-10T11:30:13Z</time>
      </trkpt>
      <trkpt lat="44.36118" lon="6.24207">
        <ele>1658.8920898</ele>
        <time>2011-07-10T11:30:17Z</time>
      </trkpt>
      <trkpt lat="44.36119" lon="6.24194">
        <ele>1659.3728027</ele>
        <time>2011-07-10T11:30:25Z</time>
      </trkpt>
      <trkpt lat="44.36118" lon="6.24191">
        <ele>1657.9309082</ele>
        <time>2011-07-10T11:30:27Z</time>
      </trkpt>
      <trkpt lat="44.36118" lon="6.24188">
        <ele>1658.8920898</ele>
        <time>2011-07-10T11:30:29Z</time>
      </trkpt>
      <trkpt lat="44.36118" lon="6.2418">
        <ele>1658.411377</ele>
        <time>2011-07-10T11:30:33Z</time>
      </trkpt>
      <trkpt lat="44.36122" lon="6.24152">
        <ele>1655.5275879</ele>
        <time>2011-07-10T11:30:51Z</time>
      </trkpt>
      <trkpt lat="44.36128" lon="6.24131">
        <ele>1653.1242676</ele>
        <time>2011-07-10T11:31:09Z</time>
      </trkpt>
      <trkpt lat="44.36132" lon="6.24114">
        <ele>1649.7597656</ele>
        <time>2011-07-10T11:31:23Z</time>
      </trkpt>
      <trkpt lat="44.36138" lon="6.24092">
        <ele>1648.7983398</ele>
        <time>2011-07-10T11:31:38Z</time>
      </trkpt>
      <trkpt lat="44.3614" lon="6.24088">
        <ele>1648.317627</ele>
        <time>2011-07-10T11:31:42Z</time>
      </trkpt>
      <trkpt lat="44.36143" lon="6.24083">
        <ele>1646.8757324</ele>
        <time>2011-07-10T11:31:46Z</time>
      </trkpt>
      <trkpt lat="44.36145" lon="6.2408">
        <ele>1646.8757324</ele>
        <time>2011-07-10T11:31:48Z</time>
      </trkpt>
      <trkpt lat="44.36147" lon="6.24077">
        <ele>1646.3952637</ele>
        <time>2011-07-10T11:31:51Z</time>
      </trkpt>
      <trkpt lat="44.3616" lon="6.24063">
        <ele>1643.9916992</ele>
        <time>2011-07-10T11:32:05Z</time>
      </trkpt>
      <trkpt lat="44.36171" lon="6.24049">
        <ele>1641.5883789</ele>
        <time>2011-07-10T11:32:19Z</time>
      </trkpt>
      <trkpt lat="44.36175" lon="6.24048">
        <ele>1640.1464844</ele>
        <time>2011-07-10T11:32:24Z</time>
      </trkpt>
      <trkpt lat="44.36176" lon="6.24047">
        <ele>1639.6657715</ele>
        <time>2011-07-10T11:32:25Z</time>
      </trkpt>
      <trkpt lat="44.36183" lon="6.24037">
        <ele>1638.7045898</ele>
        <time>2011-07-10T11:32:35Z</time>
      </trkpt>
      <trkpt lat="44.36184" lon="6.24038">
        <ele>1639.1850586</ele>
        <time>2011-07-10T11:32:36Z</time>
      </trkpt>
      <trkpt lat="44.36195" lon="6.24029">
        <ele>1638.7045898</ele>
        <time>2011-07-10T11:32:48Z</time>
      </trkpt>
      <trkpt lat="44.36205" lon="6.24019">
        <ele>1635.3398438</ele>
        <time>2011-07-10T11:32:59Z</time>
      </trkpt>
      <trkpt lat="44.3621" lon="6.24014">
        <ele>1633.4172363</ele>
        <time>2011-07-10T11:33:06Z</time>
      </trkpt>
      <trkpt lat="44.36211" lon="6.24014">
        <ele>1634.3786621</ele>
        <time>2011-07-10T11:33:07Z</time>
      </trkpt>
      <trkpt lat="44.3622" lon="6.23997">
        <ele>1631.9753418</ele>
        <time>2011-07-10T11:33:22Z</time>
      </trkpt>
      <trkpt lat="44.36234" lon="6.23977">
        <ele>1629.0913086</ele>
        <time>2011-07-10T11:33:39Z</time>
      </trkpt>
      <trkpt lat="44.36245" lon="6.23959">
        <ele>1627.6491699</ele>
        <time>2011-07-10T11:33:54Z</time>
      </trkpt>
      <trkpt lat="44.36246" lon="6.23954">
        <ele>1627.1687012</ele>
        <time>2011-07-10T11:33:58Z</time>
      </trkpt>
      <trkpt lat="44.36248" lon="6.23949">
        <ele>1627.1687012</ele>
        <time>2011-07-10T11:34:01Z</time>
      </trkpt>
      <trkpt lat="44.36255" lon="6.23938">
        <ele>1627.1687012</ele>
        <time>2011-07-10T11:34:13Z</time>
      </trkpt>
      <trkpt lat="44.36265" lon="6.23919">
        <ele>1626.6879883</ele>
        <time>2011-07-10T11:34:27Z</time>
      </trkpt>
      <trkpt lat="44.3627" lon="6.23905">
        <ele>1626.2072754</ele>
        <time>2011-07-10T11:34:37Z</time>
      </trkpt>
      <trkpt lat="44.36272" lon="6.23902">
        <ele>1625.7265625</ele>
        <time>2011-07-10T11:34:39Z</time>
      </trkpt>
      <trkpt lat="44.36275" lon="6.23888">
        <ele>1625.2458496</ele>
        <time>2011-07-10T11:34:48Z</time>
      </trkpt>
      <trkpt lat="44.36285" lon="6.23867">
        <ele>1624.7653809</ele>
        <time>2011-07-10T11:35:03Z</time>
      </trkpt>
      <trkpt lat="44.36298" lon="6.23846">
        <ele>1624.284668</ele>
        <time>2011-07-10T11:35:20Z</time>
      </trkpt>
      <trkpt lat="44.36305" lon="6.23827">
        <ele>1624.7653809</ele>
        <time>2011-07-10T11:35:35Z</time>
      </trkpt>
      <trkpt lat="44.36311" lon="6.2382">
        <ele>1624.7653809</ele>
        <time>2011-07-10T11:35:41Z</time>
      </trkpt>
      <trkpt lat="44.36318" lon="6.23813">
        <ele>1624.7653809</ele>
        <time>2011-07-10T11:35:49Z</time>
      </trkpt>
      <trkpt lat="44.36331" lon="6.23795">
        <ele>1625.2458496</ele>
        <time>2011-07-10T11:36:05Z</time>
      </trkpt>
      <trkpt lat="44.3634" lon="6.23787">
        <ele>1625.7265625</ele>
        <time>2011-07-10T11:36:17Z</time>
      </trkpt>
      <trkpt lat="44.36347" lon="6.23779">
        <ele>1627.1687012</ele>
        <time>2011-07-10T11:36:26Z</time>
      </trkpt>
      <trkpt lat="44.36354" lon="6.23769">
        <ele>1628.130127</ele>
        <time>2011-07-10T11:36:37Z</time>
      </trkpt>
      <trkpt lat="44.36357" lon="6.23761">
        <ele>1628.6108398</ele>
        <time>2011-07-10T11:36:44Z</time>
      </trkpt>
      <trkpt lat="44.36359" lon="6.23757">
        <ele>1629.0913086</ele>
        <time>2011-07-10T11:36:47Z</time>
      </trkpt>
      <trkpt lat="44.3636" lon="6.23753">
        <ele>1630.0527344</ele>
        <time>2011-07-10T11:36:49Z</time>
      </trkpt>
      <trkpt lat="44.36362" lon="6.23733">
        <ele>1631.0141602</ele>
        <time>2011-07-10T11:37:04Z</time>
      </trkpt>
      <trkpt lat="44.36362" lon="6.23731">
        <ele>1631.0141602</ele>
        <time>2011-07-10T11:37:05Z</time>
      </trkpt>
      <trkpt lat="44.36364" lon="6.23729">
        <ele>1630.0527344</ele>
        <time>2011-07-10T11:37:07Z</time>
      </trkpt>
      <trkpt lat="44.36369" lon="6.23705">
        <ele>1628.130127</ele>
        <time>2011-07-10T11:37:24Z</time>
      </trkpt>
      <trkpt lat="44.36375" lon="6.23682">
        <ele>1628.130127</ele>
        <time>2011-07-10T11:37:41Z</time>
      </trkpt>
      <trkpt lat="44.36384" lon="6.23656">
        <ele>1627.1687012</ele>
        <time>2011-07-10T11:38:01Z</time>
      </trkpt>
      <trkpt lat="44.36385" lon="6.23654">
        <ele>1627.1687012</ele>
        <time>2011-07-10T11:38:02Z</time>
      </trkpt>
      <trkpt lat="44.36397" lon="6.23619">
        <ele>1625.2458496</ele>
        <time>2011-07-10T11:38:24Z</time>
      </trkpt>
      <trkpt lat="44.36396" lon="6.23601">
        <ele>1624.284668</ele>
        <time>2011-07-10T11:38:36Z</time>
      </trkpt>
      <trkpt lat="44.36401" lon="6.23593">
        <ele>1623.8039551</ele>
        <time>2011-07-10T11:38:39Z</time>
      </trkpt>
      <trkpt lat="44.36397" lon="6.23577">
        <ele>1622.8427734</ele>
        <time>2011-07-10T11:38:50Z</time>
      </trkpt>
      <trkpt lat="44.36397" lon="6.23573">
        <ele>1622.8427734</ele>
        <time>2011-07-10T11:38:53Z</time>
      </trkpt>
      <trkpt lat="44.36393" lon="6.23552">
        <ele>1620.920166</ele>
        <time>2011-07-10T11:39:06Z</time>
      </trkpt>
      <trkpt lat="44.36391" lon="6.23534">
        <ele>1620.4394531</ele>
        <time>2011-07-10T11:39:17Z</time>
      </trkpt>
      <trkpt lat="44.36396" lon="6.23516">
        <ele>1618.9975586</ele>
        <time>2011-07-10T11:39:28Z</time>
      </trkpt>
      <trkpt lat="44.36401" lon="6.23481">
        <ele>1617.5554199</ele>
        <time>2011-07-10T11:39:48Z</time>
      </trkpt>
      <trkpt lat="44.36406" lon="6.23463">
        <ele>1617.0749512</ele>
        <time>2011-07-10T11:40:00Z</time>
      </trkpt>
      <trkpt lat="44.36408" lon="6.2346">
        <ele>1617.0749512</ele>
        <time>2011-07-10T11:40:02Z</time>
      </trkpt>
      <trkpt lat="44.36409" lon="6.23457">
        <ele>1617.0749512</ele>
        <time>2011-07-10T11:40:04Z</time>
      </trkpt>
      <trkpt lat="44.36411" lon="6.23453">
        <ele>1616.5942383</ele>
        <time>2011-07-10T11:40:07Z</time>
      </trkpt>
      <trkpt lat="44.36414" lon="6.23436">
        <ele>1616.1135254</ele>
        <time>2011-07-10T11:40:18Z</time>
      </trkpt>
      <trkpt lat="44.36427" lon="6.23409">
        <ele>1616.1135254</ele>
        <time>2011-07-10T11:40:35Z</time>
      </trkpt>
      <trkpt lat="44.36435" lon="6.23395">
        <ele>1615.6330566</ele>
        <time>2011-07-10T11:40:46Z</time>
      </trkpt>
      <trkpt lat="44.36442" lon="6.23382">
        <ele>1616.1135254</ele>
        <time>2011-07-10T11:40:55Z</time>
      </trkpt>
      <trkpt lat="44.36455" lon="6.23366">
        <ele>1615.6330566</ele>
        <time>2011-07-10T11:41:11Z</time>
      </trkpt>
      <trkpt lat="44.36462" lon="6.23368">
        <ele>1615.6330566</ele>
        <time>2011-07-10T11:41:20Z</time>
      </trkpt>
      <trkpt lat="44.36476" lon="6.2337">
        <ele>1612.7490234</ele>
        <time>2011-07-10T11:41:35Z</time>
      </trkpt>
      <trkpt lat="44.36494" lon="6.23374">
        <ele>1610.345459</ele>
        <time>2011-07-10T11:41:54Z</time>
      </trkpt>
      <trkpt lat="44.3651" lon="6.23375">
        <ele>1606.980957</ele>
        <time>2011-07-10T11:42:09Z</time>
      </trkpt>
      <trkpt lat="44.36531" lon="6.23382">
        <ele>1604.097168</ele>
        <time>2011-07-10T11:42:28Z</time>
      </trkpt>
      <trkpt lat="44.36551" lon="6.23384">
        <ele>1602.1743164</ele>
        <time>2011-07-10T11:42:44Z</time>
      </trkpt>
      <trkpt lat="44.3656" lon="6.23385">
        <ele>1598.8098145</ele>
        <time>2011-07-10T11:43:00Z</time>
      </trkpt>
      <trkpt lat="44.36568" lon="6.23386">
        <ele>1597.8486328</ele>
        <time>2011-07-10T11:43:09Z</time>
      </trkpt>
      <trkpt lat="44.366" lon="6.23391">
        <ele>1594.9643555</ele>
        <time>2011-07-10T11:43:33Z</time>
      </trkpt>
      <trkpt lat="44.36601" lon="6.23392">
        <ele>1594.4836426</ele>
        <time>2011-07-10T11:43:34Z</time>
      </trkpt>
      <trkpt lat="44.36622" lon="6.234">
        <ele>1590.6384277</ele>
        <time>2011-07-10T11:43:55Z</time>
      </trkpt>
      <trkpt lat="44.36629" lon="6.23406">
        <ele>1589.6772461</ele>
        <time>2011-07-10T11:44:03Z</time>
      </trkpt>
      <trkpt lat="44.36639" lon="6.23423">
        <ele>1587.2739258</ele>
        <time>2011-07-10T11:44:19Z</time>
      </trkpt>
      <trkpt lat="44.36662" lon="6.23433">
        <ele>1583.9094238</ele>
        <time>2011-07-10T11:44:39Z</time>
      </trkpt>
      <trkpt lat="44.36679" lon="6.23442">
        <ele>1580.064209</ele>
        <time>2011-07-10T11:44:58Z</time>
      </trkpt>
      <trkpt lat="44.36679" lon="6.23443">
        <ele>1580.064209</ele>
        <time>2011-07-10T11:44:59Z</time>
      </trkpt>
      <trkpt lat="44.36689" lon="6.23449">
        <ele>1576.6994629</ele>
        <time>2011-07-10T11:45:14Z</time>
      </trkpt>
      <trkpt lat="44.36704" lon="6.23451">
        <ele>1573.8154297</ele>
        <time>2011-07-10T11:45:31Z</time>
      </trkpt>
      <trkpt lat="44.36717" lon="6.23454">
        <ele>1571.8928223</ele>
        <time>2011-07-10T11:45:43Z</time>
      </trkpt>
      <trkpt lat="44.36733" lon="6.23451">
        <ele>1569.9702148</ele>
        <time>2011-07-10T11:45:58Z</time>
      </trkpt>
      <trkpt lat="44.36742" lon="6.23444">
        <ele>1568.0476074</ele>
        <time>2011-07-10T11:46:12Z</time>
      </trkpt>
      <trkpt lat="44.36755" lon="6.23441">
        <ele>1565.6445313</ele>
        <time>2011-07-10T11:46:31Z</time>
      </trkpt>
      <trkpt lat="44.36773" lon="6.23441">
        <ele>1562.279541</ele>
        <time>2011-07-10T11:46:49Z</time>
      </trkpt>
      <trkpt lat="44.3679" lon="6.23446">
        <ele>1559.395752</ele>
        <time>2011-07-10T11:47:04Z</time>
      </trkpt>
      <trkpt lat="44.36804" lon="6.23446">
        <ele>1556.9924316</ele>
        <time>2011-07-10T11:47:20Z</time>
      </trkpt>
      <trkpt lat="44.36805" lon="6.23446">
        <ele>1556.0310059</ele>
        <time>2011-07-10T11:47:22Z</time>
      </trkpt>
      <trkpt lat="44.36817" lon="6.23447">
        <ele>1552.6665039</ele>
        <time>2011-07-10T11:47:37Z</time>
      </trkpt>
      <trkpt lat="44.36833" lon="6.23445">
        <ele>1548.8212891</ele>
        <time>2011-07-10T11:47:52Z</time>
      </trkpt>
      <trkpt lat="44.36836" lon="6.23445">
        <ele>1548.3405762</ele>
        <time>2011-07-10T11:47:54Z</time>
      </trkpt>
      <trkpt lat="44.36837" lon="6.23444">
        <ele>1547.8598633</ele>
        <time>2011-07-10T11:47:56Z</time>
      </trkpt>
      <trkpt lat="44.36843" lon="6.23439">
        <ele>1545.456543</ele>
        <time>2011-07-10T11:48:04Z</time>
      </trkpt>
      <trkpt lat="44.36854" lon="6.23434">
        <ele>1542.5727539</ele>
        <time>2011-07-10T11:48:14Z</time>
      </trkpt>
      <trkpt lat="44.36858" lon="6.23429">
        <ele>1540.6499023</ele>
        <time>2011-07-10T11:48:21Z</time>
      </trkpt>
      <trkpt lat="44.3687" lon="6.23421">
        <ele>1536.3242188</ele>
        <time>2011-07-10T11:48:36Z</time>
      </trkpt>
      <trkpt lat="44.36875" lon="6.23419">
        <ele>1534.8823242</ele>
        <time>2011-07-10T11:48:41Z</time>
      </trkpt>
      <trkpt lat="44.36882" lon="6.23416">
        <ele>1534.4016113</ele>
        <time>2011-07-10T11:48:44Z</time>
      </trkpt>
      <trkpt lat="44.36893" lon="6.2342">
        <ele>1532.9594727</ele>
        <time>2011-07-10T11:48:56Z</time>
      </trkpt>
      <trkpt lat="44.36904" lon="6.23427">
        <ele>1529.5947266</ele>
        <time>2011-07-10T11:49:08Z</time>
      </trkpt>
      <trkpt lat="44.36922" lon="6.23434">
        <ele>1526.2302246</ele>
        <time>2011-07-10T11:49:22Z</time>
      </trkpt>
      <trkpt lat="44.36939" lon="6.23438">
        <ele>1523.8269043</ele>
        <time>2011-07-10T11:49:38Z</time>
      </trkpt>
      <trkpt lat="44.36947" lon="6.23443">
        <ele>1523.3464355</ele>
        <time>2011-07-10T11:49:46Z</time>
      </trkpt>
      <trkpt lat="44.36964" lon="6.23443">
        <ele>1519.9816895</ele>
        <time>2011-07-10T11:50:00Z</time>
      </trkpt>
      <trkpt lat="44.36989" lon="6.23439">
        <ele>1517.5783691</ele>
        <time>2011-07-10T11:50:21Z</time>
      </trkpt>
      <trkpt lat="44.37005" lon="6.23441">
        <ele>1516.6171875</ele>
        <time>2011-07-10T11:50:35Z</time>
      </trkpt>
      <trkpt lat="44.37025" lon="6.23437">
        <ele>1514.213623</ele>
        <time>2011-07-10T11:50:53Z</time>
      </trkpt>
      <trkpt lat="44.37048" lon="6.23437">
        <ele>1511.329834</ele>
        <time>2011-07-10T11:51:14Z</time>
      </trkpt>
      <trkpt lat="44.37071" lon="6.23443">
        <ele>1508.4458008</ele>
        <time>2011-07-10T11:51:35Z</time>
      </trkpt>
      <trkpt lat="44.37089" lon="6.23444">
        <ele>1505.5620117</ele>
        <time>2011-07-10T11:51:50Z</time>
      </trkpt>
      <trkpt lat="44.37102" lon="6.23444">
        <ele>1503.6394043</ele>
        <time>2011-07-10T11:52:04Z</time>
      </trkpt>
      <trkpt lat="44.37124" lon="6.2344">
        <ele>1502.6779785</ele>
        <time>2011-07-10T11:52:22Z</time>
      </trkpt>
      <trkpt lat="44.3714" lon="6.2344">
        <ele>1499.7939453</ele>
        <time>2011-07-10T11:52:40Z</time>
      </trkpt>
      <trkpt lat="44.37164" lon="6.23435">
        <ele>1496.9099121</ele>
        <time>2011-07-10T11:53:01Z</time>
      </trkpt>
      <trkpt lat="44.37185" lon="6.23426">
        <ele>1494.9873047</ele>
        <time>2011-07-10T11:53:22Z</time>
      </trkpt>
      <trkpt lat="44.37205" lon="6.23421">
        <ele>1492.1035156</ele>
        <time>2011-07-10T11:53:42Z</time>
      </trkpt>
      <trkpt lat="44.37219" lon="6.23425">
        <ele>1489.2194824</ele>
        <time>2011-07-10T11:53:56Z</time>
      </trkpt>
      <trkpt lat="44.37234" lon="6.23431">
        <ele>1486.3356934</ele>
        <time>2011-07-10T11:54:11Z</time>
      </trkpt>
      <trkpt lat="44.3724" lon="6.23432">
        <ele>1484.4130859</ele>
        <time>2011-07-10T11:54:16Z</time>
      </trkpt>
      <trkpt lat="44.37242" lon="6.23431">
        <ele>1483.9321289</ele>
        <time>2011-07-10T11:54:18Z</time>
      </trkpt>
      <trkpt lat="44.37256" lon="6.23435">
        <ele>1481.5288086</ele>
        <time>2011-07-10T11:54:33Z</time>
      </trkpt>
      <trkpt lat="44.37264" lon="6.23436">
        <ele>1480.0869141</ele>
        <time>2011-07-10T11:54:40Z</time>
      </trkpt>
      <trkpt lat="44.37286" lon="6.23435">
        <ele>1477.6835938</ele>
        <time>2011-07-10T11:54:59Z</time>
      </trkpt>
      <trkpt lat="44.37291" lon="6.23438">
        <ele>1477.203125</ele>
        <time>2011-07-10T11:55:04Z</time>
      </trkpt>
      <trkpt lat="44.37305" lon="6.23437">
        <ele>1476.2416992</ele>
        <time>2011-07-10T11:55:17Z</time>
      </trkpt>
      <trkpt lat="44.37309" lon="6.23439">
        <ele>1475.7609863</ele>
        <time>2011-07-10T11:55:19Z</time>
      </trkpt>
      <trkpt lat="44.37315" lon="6.2344">
        <ele>1475.2802734</ele>
        <time>2011-07-10T11:55:24Z</time>
      </trkpt>
      <trkpt lat="44.3733" lon="6.23449">
        <ele>1472.3964844</ele>
        <time>2011-07-10T11:55:42Z</time>
      </trkpt>
      <trkpt lat="44.37345" lon="6.23459">
        <ele>1469.9931641</ele>
        <time>2011-07-10T11:55:56Z</time>
      </trkpt>
      <trkpt lat="44.37346" lon="6.23463">
        <ele>1469.0319824</ele>
        <time>2011-07-10T11:56:00Z</time>
      </trkpt>
      <trkpt lat="44.37359" lon="6.2348">
        <ele>1466.628418</ele>
        <time>2011-07-10T11:56:19Z</time>
      </trkpt>
      <trkpt lat="44.3737" lon="6.23493">
        <ele>1465.1865234</ele>
        <time>2011-07-10T11:56:33Z</time>
      </trkpt>
      <trkpt lat="44.37386" lon="6.23504">
        <ele>1463.7443848</ele>
        <time>2011-07-10T11:56:47Z</time>
      </trkpt>
      <trkpt lat="44.37388" lon="6.23506">
        <ele>1463.263916</ele>
        <time>2011-07-10T11:56:49Z</time>
      </trkpt>
      <trkpt lat="44.37401" lon="6.23515">
        <ele>1461.8220215</ele>
        <time>2011-07-10T11:57:05Z</time>
      </trkpt>
      <trkpt lat="44.37421" lon="6.23522">
        <ele>1458.4572754</ele>
        <time>2011-07-10T11:57:23Z</time>
      </trkpt>
      <trkpt lat="44.37433" lon="6.23528">
        <ele>1455.5734863</ele>
        <time>2011-07-10T11:57:36Z</time>
      </trkpt>
      <trkpt lat="44.37442" lon="6.2353">
        <ele>1454.6120605</ele>
        <time>2011-07-10T11:57:44Z</time>
      </trkpt>
      <trkpt lat="44.37458" lon="6.23534">
        <ele>1452.2087402</ele>
        <time>2011-07-10T11:58:02Z</time>
      </trkpt>
      <trkpt lat="44.37476" lon="6.23532">
        <ele>1449.324707</ele>
        <time>2011-07-10T11:58:19Z</time>
      </trkpt>
      <trkpt lat="44.37496" lon="6.23531">
        <ele>1446.9213867</ele>
        <time>2011-07-10T11:58:39Z</time>
      </trkpt>
      <trkpt lat="44.37512" lon="6.23536">
        <ele>1444.5180664</ele>
        <time>2011-07-10T11:58:56Z</time>
      </trkpt>
      <trkpt lat="44.37535" lon="6.23545">
        <ele>1442.5957031</ele>
        <time>2011-07-10T11:59:17Z</time>
      </trkpt>
      <trkpt lat="44.37548" lon="6.23549">
        <ele>1440.6728516</ele>
        <time>2011-07-10T11:59:31Z</time>
      </trkpt>
      <trkpt lat="44.37559" lon="6.23556">
        <ele>1437.7890625</ele>
        <time>2011-07-10T11:59:44Z</time>
      </trkpt>
      <trkpt lat="44.37583" lon="6.23567">
        <ele>1436.347168</ele>
        <time>2011-07-10T12:00:08Z</time>
      </trkpt>
      <trkpt lat="44.37605" lon="6.23571">
        <ele>1433.9436035</ele>
        <time>2011-07-10T12:00:28Z</time>
      </trkpt>
      <trkpt lat="44.37619" lon="6.23579">
        <ele>1432.501709</ele>
        <time>2011-07-10T12:00:42Z</time>
      </trkpt>
      <trkpt lat="44.37634" lon="6.23581">
        <ele>1430.5791016</ele>
        <time>2011-07-10T12:00:55Z</time>
      </trkpt>
      <trkpt lat="44.37647" lon="6.23575">
        <ele>1429.6176758</ele>
        <time>2011-07-10T12:01:11Z</time>
      </trkpt>
      <trkpt lat="44.3765" lon="6.23573">
        <ele>1429.6176758</ele>
        <time>2011-07-10T12:01:14Z</time>
      </trkpt>
      <trkpt lat="44.37666" lon="6.23563">
        <ele>1428.1757813</ele>
        <time>2011-07-10T12:01:27Z</time>
      </trkpt>
      <trkpt lat="44.37682" lon="6.23553">
        <ele>1425.7724609</ele>
        <time>2011-07-10T12:01:42Z</time>
      </trkpt>
      <trkpt lat="44.37688" lon="6.2355">
        <ele>1425.291748</ele>
        <time>2011-07-10T12:01:50Z</time>
      </trkpt>
      <trkpt lat="44.37696" lon="6.2355">
        <ele>1423.8498535</ele>
        <time>2011-07-10T12:01:58Z</time>
      </trkpt>
      <trkpt lat="44.37702" lon="6.23554">
        <ele>1422.8886719</ele>
        <time>2011-07-10T12:02:03Z</time>
      </trkpt>
      <trkpt lat="44.37715" lon="6.23557">
        <ele>1420.4853516</ele>
        <time>2011-07-10T12:02:20Z</time>
      </trkpt>
      <trkpt lat="44.37737" lon="6.23563">
        <ele>1417.6010742</ele>
        <time>2011-07-10T12:02:41Z</time>
      </trkpt>
      <trkpt lat="44.3775" lon="6.23567">
        <ele>1415.6787109</ele>
        <time>2011-07-10T12:02:56Z</time>
      </trkpt>
      <trkpt lat="44.37766" lon="6.23571">
        <ele>1413.7558594</ele>
        <time>2011-07-10T12:03:14Z</time>
      </trkpt>
      <trkpt lat="44.37781" lon="6.23578">
        <ele>1411.8334961</ele>
        <time>2011-07-10T12:03:32Z</time>
      </trkpt>
      <trkpt lat="44.37785" lon="6.23579">
        <ele>1411.3527832</ele>
        <time>2011-07-10T12:03:36Z</time>
      </trkpt>
      <trkpt lat="44.37803" lon="6.23576">
        <ele>1408.46875</ele>
        <time>2011-07-10T12:03:54Z</time>
      </trkpt>
      <trkpt lat="44.37805" lon="6.23575">
        <ele>1408.46875</ele>
        <time>2011-07-10T12:03:57Z</time>
      </trkpt>
      <trkpt lat="44.37818" lon="6.23568">
        <ele>1404.6235352</ele>
        <time>2011-07-10T12:04:11Z</time>
      </trkpt>
      <trkpt lat="44.37836" lon="6.23567">
        <ele>1401.739502</ele>
        <time>2011-07-10T12:04:28Z</time>
      </trkpt>
      <trkpt lat="44.37839" lon="6.23564">
        <ele>1401.2587891</ele>
        <time>2011-07-10T12:04:31Z</time>
      </trkpt>
      <trkpt lat="44.37842" lon="6.23565">
        <ele>1400.7780762</ele>
        <time>2011-07-10T12:04:34Z</time>
      </trkpt>
      <trkpt lat="44.37864" lon="6.23562">
        <ele>1397.8942871</ele>
        <time>2011-07-10T12:04:54Z</time>
      </trkpt>
      <trkpt lat="44.37871" lon="6.23558">
        <ele>1396.9328613</ele>
        <time>2011-07-10T12:05:01Z</time>
      </trkpt>
      <trkpt lat="44.37878" lon="6.23541">
        <ele>1395.4909668</ele>
        <time>2011-07-10T12:05:14Z</time>
      </trkpt>
      <trkpt lat="44.3788" lon="6.23535">
        <ele>1395.4909668</ele>
        <time>2011-07-10T12:05:18Z</time>
      </trkpt>
      <trkpt lat="44.37891" lon="6.23502">
        <ele>1392.6071777</ele>
        <time>2011-07-10T12:05:41Z</time>
      </trkpt>
      <trkpt lat="44.37902" lon="6.23485">
        <ele>1392.6071777</ele>
        <time>2011-07-10T12:05:55Z</time>
      </trkpt>
      <trkpt lat="44.37923" lon="6.23477">
        <ele>1390.6843262</ele>
        <time>2011-07-10T12:06:14Z</time>
      </trkpt>
      <trkpt lat="44.3793" lon="6.23475">
        <ele>1390.6843262</ele>
        <time>2011-07-10T12:06:21Z</time>
      </trkpt>
      <trkpt lat="44.37932" lon="6.23474">
        <ele>1390.2038574</ele>
        <time>2011-07-10T12:06:23Z</time>
      </trkpt>
      <trkpt lat="44.37946" lon="6.23474">
        <ele>1389.7231445</ele>
        <time>2011-07-10T12:06:36Z</time>
      </trkpt>
      <trkpt lat="44.37959" lon="6.23471">
        <ele>1388.28125</ele>
        <time>2011-07-10T12:06:48Z</time>
      </trkpt>
      <trkpt lat="44.37964" lon="6.23468">
        <ele>1387.800293</ele>
        <time>2011-07-10T12:06:54Z</time>
      </trkpt>
      <trkpt lat="44.37975" lon="6.2346">
        <ele>1386.3583984</ele>
        <time>2011-07-10T12:07:08Z</time>
      </trkpt>
      <trkpt lat="44.37978" lon="6.23456">
        <ele>1385.3969727</ele>
        <time>2011-07-10T12:07:13Z</time>
      </trkpt>
      <trkpt lat="44.37994" lon="6.23445">
        <ele>1382.5131836</ele>
        <time>2011-07-10T12:07:28Z</time>
      </trkpt>
      <trkpt lat="44.37998" lon="6.23441">
        <ele>1381.5517578</ele>
        <time>2011-07-10T12:07:33Z</time>
      </trkpt>
      <trkpt lat="44.38003" lon="6.23437">
        <ele>1381.0712891</ele>
        <time>2011-07-10T12:07:38Z</time>
      </trkpt>
      <trkpt lat="44.38008" lon="6.23432">
        <ele>1380.1098633</ele>
        <time>2011-07-10T12:07:44Z</time>
      </trkpt>
      <trkpt lat="44.38022" lon="6.23431">
        <ele>1377.2260742</ele>
        <time>2011-07-10T12:08:02Z</time>
      </trkpt>
      <trkpt lat="44.38034" lon="6.2343">
        <ele>1375.3032227</ele>
        <time>2011-07-10T12:08:16Z</time>
      </trkpt>
      <trkpt lat="44.38053" lon="6.23431">
        <ele>1372.9001465</ele>
        <time>2011-07-10T12:08:36Z</time>
      </trkpt>
      <trkpt lat="44.38062" lon="6.23431">
        <ele>1371.9384766</ele>
        <time>2011-07-10T12:08:42Z</time>
      </trkpt>
      <trkpt lat="44.38083" lon="6.23432">
        <ele>1370.9772949</ele>
        <time>2011-07-10T12:08:58Z</time>
      </trkpt>
      <trkpt lat="44.38093" lon="6.23445">
        <ele>1370.0158691</ele>
        <time>2011-07-10T12:09:10Z</time>
      </trkpt>
      <trkpt lat="44.38103" lon="6.23452">
        <ele>1370.0158691</ele>
        <time>2011-07-10T12:09:22Z</time>
      </trkpt>
      <trkpt lat="44.38126" lon="6.23466">
        <ele>1370.0158691</ele>
        <time>2011-07-10T12:09:42Z</time>
      </trkpt>
      <trkpt lat="44.38135" lon="6.2347">
        <ele>1369.0546875</ele>
        <time>2011-07-10T12:09:52Z</time>
      </trkpt>
      <trkpt lat="44.3815" lon="6.23488">
        <ele>1368.5739746</ele>
        <time>2011-07-10T12:10:07Z</time>
      </trkpt>
      <trkpt lat="44.38156" lon="6.23495">
        <ele>1369.0546875</ele>
        <time>2011-07-10T12:10:28Z</time>
      </trkpt>
      <trkpt lat="44.38172" lon="6.23509">
        <ele>1368.0932617</ele>
        <time>2011-07-10T12:10:44Z</time>
      </trkpt>
      <trkpt lat="44.38174" lon="6.23512">
        <ele>1368.0932617</ele>
        <time>2011-07-10T12:10:45Z</time>
      </trkpt>
      <trkpt lat="44.38183" lon="6.23519">
        <ele>1368.5739746</ele>
        <time>2011-07-10T12:10:55Z</time>
      </trkpt>
      <trkpt lat="44.38196" lon="6.2354">
        <ele>1368.5739746</ele>
        <time>2011-07-10T12:11:11Z</time>
      </trkpt>
      <trkpt lat="44.38208" lon="6.23563">
        <ele>1368.5739746</ele>
        <time>2011-07-10T12:11:27Z</time>
      </trkpt>
      <trkpt lat="44.3821" lon="6.23565">
        <ele>1368.0932617</ele>
        <time>2011-07-10T12:11:29Z</time>
      </trkpt>
      <trkpt lat="44.38214" lon="6.23568">
        <ele>1368.0932617</ele>
        <time>2011-07-10T12:11:33Z</time>
      </trkpt>
      <trkpt lat="44.38231" lon="6.23577">
        <ele>1365.6901855</ele>
        <time>2011-07-10T12:11:51Z</time>
      </trkpt>
      <trkpt lat="44.38242" lon="6.23581">
        <ele>1365.2094727</ele>
        <time>2011-07-10T12:11:59Z</time>
      </trkpt>
      <trkpt lat="44.38262" lon="6.23587">
        <ele>1364.2480469</ele>
        <time>2011-07-10T12:12:14Z</time>
      </trkpt>
      <trkpt lat="44.38266" lon="6.23589">
        <ele>1364.2480469</ele>
        <time>2011-07-10T12:12:18Z</time>
      </trkpt>
      <trkpt lat="44.38278" lon="6.23601">
        <ele>1363.767334</ele>
        <time>2011-07-10T12:12:30Z</time>
      </trkpt>
      <trkpt lat="44.38286" lon="6.23607">
        <ele>1363.767334</ele>
        <time>2011-07-10T12:12:38Z</time>
      </trkpt>
      <trkpt lat="44.383" lon="6.23624">
        <ele>1362.8061523</ele>
        <time>2011-07-10T12:12:53Z</time>
      </trkpt>
      <trkpt lat="44.38322" lon="6.23653">
        <ele>1363.767334</ele>
        <time>2011-07-10T12:13:15Z</time>
      </trkpt>
      <trkpt lat="44.38344" lon="6.23685">
        <ele>1362.8061523</ele>
        <time>2011-07-10T12:13:42Z</time>
      </trkpt>
      <trkpt lat="44.38368" lon="6.23709">
        <ele>1360.8835449</ele>
        <time>2011-07-10T12:14:09Z</time>
      </trkpt>
      <trkpt lat="44.38391" lon="6.23721">
        <ele>1359.9221191</ele>
        <time>2011-07-10T12:14:33Z</time>
      </trkpt>
      <trkpt lat="44.38398" lon="6.23715">
        <ele>1360.8835449</ele>
        <time>2011-07-10T12:14:51Z</time>
      </trkpt>
      <trkpt lat="44.38398" lon="6.23716">
        <ele>1361.3642578</ele>
        <time>2011-07-10T12:15:28Z</time>
      </trkpt>
      <trkpt lat="44.38398" lon="6.23716">
        <ele>1362.8061523</ele>
        <time>2011-07-10T12:15:46Z</time>
      </trkpt>
      <trkpt lat="44.38402" lon="6.23723">
        <ele>1360.402832</ele>
        <time>2011-07-10T12:17:35Z</time>
      </trkpt>
      <trkpt lat="44.38412" lon="6.23733">
        <ele>1356.5576172</ele>
        <time>2011-07-10T12:17:45Z</time>
      </trkpt>
      <trkpt lat="44.38419" lon="6.2374">
        <ele>1355.5961914</ele>
        <time>2011-07-10T12:17:51Z</time>
      </trkpt>
      <trkpt lat="44.38424" lon="6.23744">
        <ele>1354.1542969</ele>
        <time>2011-07-10T12:17:56Z</time>
      </trkpt>
      <trkpt lat="44.38429" lon="6.23746">
        <ele>1353.673584</ele>
        <time>2011-07-10T12:18:00Z</time>
      </trkpt>
      <trkpt lat="44.38434" lon="6.23744">
        <ele>1352.7121582</ele>
        <time>2011-07-10T12:18:05Z</time>
      </trkpt>
      <trkpt lat="44.38436" lon="6.23743">
        <ele>1353.1928711</ele>
        <time>2011-07-10T12:18:24Z</time>
      </trkpt>
      <trkpt lat="44.38439" lon="6.23744">
        <ele>1352.2314453</ele>
        <time>2011-07-10T12:18:47Z</time>
      </trkpt>
      <trkpt lat="44.3844" lon="6.23743">
        <ele>1351.2702637</ele>
        <time>2011-07-10T12:19:03Z</time>
      </trkpt>
      <trkpt lat="44.38448" lon="6.23739">
        <ele>1351.7509766</ele>
        <time>2011-07-10T12:19:11Z</time>
      </trkpt>
      <trkpt lat="44.38455" lon="6.23732">
        <ele>1349.8283691</ele>
        <time>2011-07-10T12:19:20Z</time>
      </trkpt>
      <trkpt lat="44.38464" lon="6.23723">
        <ele>1349.3476563</ele>
        <time>2011-07-10T12:19:30Z</time>
      </trkpt>
      <trkpt lat="44.38474" lon="6.23708">
        <ele>1347.4250488</ele>
        <time>2011-07-10T12:19:44Z</time>
      </trkpt>
      <trkpt lat="44.38475" lon="6.23705">
        <ele>1347.9057617</ele>
        <time>2011-07-10T12:19:46Z</time>
      </trkpt>
      <trkpt lat="44.38488" lon="6.23686">
        <ele>1344.5410156</ele>
        <time>2011-07-10T12:20:08Z</time>
      </trkpt>
      <trkpt lat="44.3849" lon="6.23684">
        <ele>1343.0991211</ele>
        <time>2011-07-10T12:20:10Z</time>
      </trkpt>
      <trkpt lat="44.38515" lon="6.23676">
        <ele>1340.215332</ele>
        <time>2011-07-10T12:20:30Z</time>
      </trkpt>
      <trkpt lat="44.38516" lon="6.23676">
        <ele>1340.215332</ele>
        <time>2011-07-10T12:20:31Z</time>
      </trkpt>
      <trkpt lat="44.3852" lon="6.23677">
        <ele>1339.734375</ele>
        <time>2011-07-10T12:20:34Z</time>
      </trkpt>
      <trkpt lat="44.38536" lon="6.23682">
        <ele>1337.3310547</ele>
        <time>2011-07-10T12:20:45Z</time>
      </trkpt>
      <trkpt lat="44.38537" lon="6.23681">
        <ele>1337.8117676</ele>
        <time>2011-07-10T12:20:46Z</time>
      </trkpt>
      <trkpt lat="44.38543" lon="6.23682">
        <ele>1334.9279785</ele>
        <time>2011-07-10T12:20:50Z</time>
      </trkpt>
      <trkpt lat="44.38554" lon="6.23675">
        <ele>1333.9665527</ele>
        <time>2011-07-10T12:21:00Z</time>
      </trkpt>
      <trkpt lat="44.38566" lon="6.23668">
        <ele>1333.4858398</ele>
        <time>2011-07-10T12:21:08Z</time>
      </trkpt>
      <trkpt lat="44.38583" lon="6.23656">
        <ele>1330.6020508</ele>
        <time>2011-07-10T12:21:24Z</time>
      </trkpt>
      <trkpt lat="44.38596" lon="6.2364">
        <ele>1327.7180176</ele>
        <time>2011-07-10T12:21:42Z</time>
      </trkpt>
      <trkpt lat="44.38603" lon="6.23632">
        <ele>1326.276123</ele>
        <time>2011-07-10T12:21:51Z</time>
      </trkpt>
      <trkpt lat="44.38609" lon="6.23626">
        <ele>1324.3535156</ele>
        <time>2011-07-10T12:22:00Z</time>
      </trkpt>
      <trkpt lat="44.38625" lon="6.23623">
        <ele>1321.4692383</ele>
        <time>2011-07-10T12:22:13Z</time>
      </trkpt>
      <trkpt lat="44.38629" lon="6.23619">
        <ele>1320.5080566</ele>
        <time>2011-07-10T12:22:18Z</time>
      </trkpt>
      <trkpt lat="44.38634" lon="6.23621">
        <ele>1319.546875</ele>
        <time>2011-07-10T12:22:21Z</time>
      </trkpt>
      <trkpt lat="44.38646" lon="6.23617">
        <ele>1316.6628418</ele>
        <time>2011-07-10T12:22:32Z</time>
      </trkpt>
      <trkpt lat="44.38647" lon="6.23617">
        <ele>1316.6628418</ele>
        <time>2011-07-10T12:22:33Z</time>
      </trkpt>
      <trkpt lat="44.3865" lon="6.23618">
        <ele>1316.6628418</ele>
        <time>2011-07-10T12:22:37Z</time>
      </trkpt>
      <trkpt lat="44.38656" lon="6.23625">
        <ele>1315.2209473</ele>
        <time>2011-07-10T12:22:46Z</time>
      </trkpt>
      <trkpt lat="44.38668" lon="6.23633">
        <ele>1313.2983398</ele>
        <time>2011-07-10T12:22:57Z</time>
      </trkpt>
      <trkpt lat="44.38671" lon="6.23635">
        <ele>1312.3369141</ele>
        <time>2011-07-10T12:23:03Z</time>
      </trkpt>
      <trkpt lat="44.38676" lon="6.23646">
        <ele>1309.9335938</ele>
        <time>2011-07-10T12:23:13Z</time>
      </trkpt>
      <trkpt lat="44.38693" lon="6.23651">
        <ele>1307.0495605</ele>
        <time>2011-07-10T12:23:34Z</time>
      </trkpt>
      <trkpt lat="44.38696" lon="6.2365">
        <ele>1306.5688477</ele>
        <time>2011-07-10T12:23:37Z</time>
      </trkpt>
      <trkpt lat="44.38709" lon="6.23648">
        <ele>1306.0881348</ele>
        <time>2011-07-10T12:23:43Z</time>
      </trkpt>
      <trkpt lat="44.38717" lon="6.2364">
        <ele>1305.1269531</ele>
        <time>2011-07-10T12:23:49Z</time>
      </trkpt>
      <trkpt lat="44.38732" lon="6.23627">
        <ele>1303.2043457</ele>
        <time>2011-07-10T12:24:04Z</time>
      </trkpt>
      <trkpt lat="44.38745" lon="6.23614">
        <ele>1303.2043457</ele>
        <time>2011-07-10T12:24:19Z</time>
      </trkpt>
      <trkpt lat="44.38751" lon="6.23606">
        <ele>1302.7236328</ele>
        <time>2011-07-10T12:24:25Z</time>
      </trkpt>
      <trkpt lat="44.38758" lon="6.23597">
        <ele>1301.7624512</ele>
        <time>2011-07-10T12:24:34Z</time>
      </trkpt>
      <trkpt lat="44.38768" lon="6.2359">
        <ele>1300.8010254</ele>
        <time>2011-07-10T12:24:42Z</time>
      </trkpt>
      <trkpt lat="44.38788" lon="6.2357">
        <ele>1299.3591309</ele>
        <time>2011-07-10T12:24:59Z</time>
      </trkpt>
      <trkpt lat="44.38804" lon="6.23555">
        <ele>1297.9172363</ele>
        <time>2011-07-10T12:25:14Z</time>
      </trkpt>
      <trkpt lat="44.38806" lon="6.23553">
        <ele>1296.9558105</ele>
        <time>2011-07-10T12:25:16Z</time>
      </trkpt>
      <trkpt lat="44.38809" lon="6.23547">
        <ele>1295.9946289</ele>
        <time>2011-07-10T12:25:22Z</time>
      </trkpt>
      <trkpt lat="44.38827" lon="6.23535">
        <ele>1293.5913086</ele>
        <time>2011-07-10T12:25:41Z</time>
      </trkpt>
      <trkpt lat="44.38844" lon="6.23523">
        <ele>1291.668457</ele>
        <time>2011-07-10T12:25:58Z</time>
      </trkpt>
      <trkpt lat="44.38855" lon="6.23515">
        <ele>1289.7458496</ele>
        <time>2011-07-10T12:26:12Z</time>
      </trkpt>
      <trkpt lat="44.38864" lon="6.23508">
        <ele>1288.784668</ele>
        <time>2011-07-10T12:26:24Z</time>
      </trkpt>
      <trkpt lat="44.38876" lon="6.23499">
        <ele>1287.3425293</ele>
        <time>2011-07-10T12:26:46Z</time>
      </trkpt>
      <trkpt lat="44.38877" lon="6.23496">
        <ele>1287.8232422</ele>
        <time>2011-07-10T12:27:03Z</time>
      </trkpt>
      <trkpt lat="44.38883" lon="6.23477">
        <ele>1283.9780273</ele>
        <time>2011-07-10T12:27:19Z</time>
      </trkpt>
      <trkpt lat="44.3889" lon="6.23459">
        <ele>1280.6135254</ele>
        <time>2011-07-10T12:27:32Z</time>
      </trkpt>
      <trkpt lat="44.38893" lon="6.2345">
        <ele>1278.690918</ele>
        <time>2011-07-10T12:27:39Z</time>
      </trkpt>
      <trkpt lat="44.38897" lon="6.23442">
        <ele>1277.7294922</ele>
        <time>2011-07-10T12:27:46Z</time>
      </trkpt>
      <trkpt lat="44.38905" lon="6.23428">
        <ele>1275.8066406</ele>
        <time>2011-07-10T12:27:59Z</time>
      </trkpt>
      <trkpt lat="44.38907" lon="6.23427">
        <ele>1274.845459</ele>
        <time>2011-07-10T12:28:01Z</time>
      </trkpt>
      <trkpt lat="44.38923" lon="6.23416">
        <ele>1271.9614258</ele>
        <time>2011-07-10T12:28:16Z</time>
      </trkpt>
      <trkpt lat="44.38935" lon="6.23409">
        <ele>1269.5583496</ele>
        <time>2011-07-10T12:28:27Z</time>
      </trkpt>
      <trkpt lat="44.38937" lon="6.23405">
        <ele>1269.0776367</ele>
        <time>2011-07-10T12:28:30Z</time>
      </trkpt>
      <trkpt lat="44.38948" lon="6.23396">
        <ele>1266.1936035</ele>
        <time>2011-07-10T12:28:45Z</time>
      </trkpt>
      <trkpt lat="44.38966" lon="6.23385">
        <ele>1264.2709961</ele>
        <time>2011-07-10T12:29:00Z</time>
      </trkpt>
      <trkpt lat="44.38982" lon="6.23373">
        <ele>1263.3098145</ele>
        <time>2011-07-10T12:29:12Z</time>
      </trkpt>
      <trkpt lat="44.38999" lon="6.23361">
        <ele>1262.8291016</ele>
        <time>2011-07-10T12:29:23Z</time>
      </trkpt>
      <trkpt lat="44.39011" lon="6.23342">
        <ele>1261.8679199</ele>
        <time>2011-07-10T12:29:38Z</time>
      </trkpt>
      <trkpt lat="44.39023" lon="6.23332">
        <ele>1260.4257813</ele>
        <time>2011-07-10T12:29:51Z</time>
      </trkpt>
      <trkpt lat="44.39033" lon="6.23325">
        <ele>1259.9448242</ele>
        <time>2011-07-10T12:29:58Z</time>
      </trkpt>
      <trkpt lat="44.39034" lon="6.23321">
        <ele>1259.9448242</ele>
        <time>2011-07-10T12:30:00Z</time>
      </trkpt>
      <trkpt lat="44.39039" lon="6.23316">
        <ele>1259.4643555</ele>
        <time>2011-07-10T12:30:05Z</time>
      </trkpt>
      <trkpt lat="44.39061" lon="6.2331">
        <ele>1258.0224609</ele>
        <time>2011-07-10T12:30:19Z</time>
      </trkpt>
      <trkpt lat="44.39076" lon="6.23311">
        <ele>1257.541748</ele>
        <time>2011-07-10T12:30:34Z</time>
      </trkpt>
      <trkpt lat="44.39087" lon="6.23315">
        <ele>1256.5803223</ele>
        <time>2011-07-10T12:30:44Z</time>
      </trkpt>
      <trkpt lat="44.39111" lon="6.23328">
        <ele>1255.6191406</ele>
        <time>2011-07-10T12:31:03Z</time>
      </trkpt>
      <trkpt lat="44.39122" lon="6.23327">
        <ele>1255.6191406</ele>
        <time>2011-07-10T12:31:11Z</time>
      </trkpt>
      <trkpt lat="44.39123" lon="6.23327">
        <ele>1255.1384277</ele>
        <time>2011-07-10T12:31:13Z</time>
      </trkpt>
      <trkpt lat="44.39145" lon="6.23326">
        <ele>1252.7351074</ele>
        <time>2011-07-10T12:31:29Z</time>
      </trkpt>
      <trkpt lat="44.39152" lon="6.23325">
        <ele>1252.2543945</ele>
        <time>2011-07-10T12:31:38Z</time>
      </trkpt>
      <trkpt lat="44.39153" lon="6.23325">
        <ele>1251.2932129</ele>
        <time>2011-07-10T12:31:40Z</time>
      </trkpt>
      <trkpt lat="44.3916" lon="6.23322">
        <ele>1250.8125</ele>
        <time>2011-07-10T12:31:45Z</time>
      </trkpt>
      <trkpt lat="44.39179" lon="6.23319">
        <ele>1249.3706055</ele>
        <time>2011-07-10T12:31:58Z</time>
      </trkpt>
      <trkpt lat="44.39185" lon="6.23315">
        <ele>1249.3706055</ele>
        <time>2011-07-10T12:32:02Z</time>
      </trkpt>
      <trkpt lat="44.39188" lon="6.23313">
        <ele>1248.8898926</ele>
        <time>2011-07-10T12:32:05Z</time>
      </trkpt>
      <trkpt lat="44.392" lon="6.23309">
        <ele>1246.0061035</ele>
        <time>2011-07-10T12:32:17Z</time>
      </trkpt>
      <trkpt lat="44.39216" lon="6.23301">
        <ele>1244.5639648</ele>
        <time>2011-07-10T12:32:32Z</time>
      </trkpt>
      <trkpt lat="44.39222" lon="6.23301">
        <ele>1244.0834961</ele>
        <time>2011-07-10T12:32:38Z</time>
      </trkpt>
      <trkpt lat="44.39242" lon="6.23298">
        <ele>1242.1606445</ele>
        <time>2011-07-10T12:32:53Z</time>
      </trkpt>
      <trkpt lat="44.39248" lon="6.23296">
        <ele>1240.7185059</ele>
        <time>2011-07-10T12:32:58Z</time>
      </trkpt>
      <trkpt lat="44.39258" lon="6.23298">
        <ele>1239.2766113</ele>
        <time>2011-07-10T12:33:09Z</time>
      </trkpt>
      <trkpt lat="44.39271" lon="6.23298">
        <ele>1235.4313965</ele>
        <time>2011-07-10T12:33:31Z</time>
      </trkpt>
      <trkpt lat="44.39293" lon="6.2329">
        <ele>1232.5476074</ele>
        <time>2011-07-10T12:33:48Z</time>
      </trkpt>
      <trkpt lat="44.39304" lon="6.23286">
        <ele>1231.1057129</ele>
        <time>2011-07-10T12:34:00Z</time>
      </trkpt>
      <trkpt lat="44.39309" lon="6.23284">
        <ele>1230.625</ele>
        <time>2011-07-10T12:34:04Z</time>
      </trkpt>
      <trkpt lat="44.39322" lon="6.23278">
        <ele>1228.2216797</ele>
        <time>2011-07-10T12:34:16Z</time>
      </trkpt>
      <trkpt lat="44.39325" lon="6.23276">
        <ele>1227.7407227</ele>
        <time>2011-07-10T12:34:20Z</time>
      </trkpt>
      <trkpt lat="44.39326" lon="6.23276">
        <ele>1227.2602539</ele>
        <time>2011-07-10T12:34:24Z</time>
      </trkpt>
      <trkpt lat="44.39331" lon="6.23273">
        <ele>1227.2602539</ele>
        <time>2011-07-10T12:34:29Z</time>
      </trkpt>
      <trkpt lat="44.39339" lon="6.23269">
        <ele>1225.8181152</ele>
        <time>2011-07-10T12:34:35Z</time>
      </trkpt>
      <trkpt lat="44.39353" lon="6.23266">
        <ele>1224.8569336</ele>
        <time>2011-07-10T12:34:48Z</time>
      </trkpt>
      <trkpt lat="44.39377" lon="6.23263">
        <ele>1222.4536133</ele>
        <time>2011-07-10T12:35:10Z</time>
      </trkpt>
      <trkpt lat="44.39391" lon="6.23256">
        <ele>1220.050293</ele>
        <time>2011-07-10T12:35:30Z</time>
      </trkpt>
      <trkpt lat="44.394" lon="6.23251">
        <ele>1219.5698242</ele>
        <time>2011-07-10T12:35:37Z</time>
      </trkpt>
      <trkpt lat="44.39408" lon="6.23245">
        <ele>1219.0891113</ele>
        <time>2011-07-10T12:35:46Z</time>
      </trkpt>
      <trkpt lat="44.39411" lon="6.23244">
        <ele>1218.6083984</ele>
        <time>2011-07-10T12:35:49Z</time>
      </trkpt>
      <trkpt lat="44.39419" lon="6.23242">
        <ele>1217.6469727</ele>
        <time>2011-07-10T12:36:09Z</time>
      </trkpt>
      <trkpt lat="44.39428" lon="6.23242">
        <ele>1216.2050781</ele>
        <time>2011-07-10T12:36:29Z</time>
      </trkpt>
      <trkpt lat="44.3943" lon="6.23243">
        <ele>1214.7631836</ele>
        <time>2011-07-10T12:36:31Z</time>
      </trkpt>
      <trkpt lat="44.39445" lon="6.2324">
        <ele>1211.3984375</ele>
        <time>2011-07-10T12:36:47Z</time>
      </trkpt>
      <trkpt lat="44.39451" lon="6.23242">
        <ele>1210.4370117</ele>
        <time>2011-07-10T12:36:53Z</time>
      </trkpt>
      <trkpt lat="44.39468" lon="6.23237">
        <ele>1207.0725098</ele>
        <time>2011-07-10T12:37:10Z</time>
      </trkpt>
      <trkpt lat="44.39476" lon="6.23237">
        <ele>1205.1499023</ele>
        <time>2011-07-10T12:37:22Z</time>
      </trkpt>
      <trkpt lat="44.39477" lon="6.23238">
        <ele>1203.7080078</ele>
        <time>2011-07-10T12:37:24Z</time>
      </trkpt>
      <trkpt lat="44.39491" lon="6.23243">
        <ele>1201.3046875</ele>
        <time>2011-07-10T12:37:40Z</time>
      </trkpt>
      <trkpt lat="44.39504" lon="6.23245">
        <ele>1198.4206543</ele>
        <time>2011-07-10T12:37:56Z</time>
      </trkpt>
      <trkpt lat="44.39508" lon="6.23241">
        <ele>1198.4206543</ele>
        <time>2011-07-10T12:38:00Z</time>
      </trkpt>
      <trkpt lat="44.39524" lon="6.23231">
        <ele>1197.9401855</ele>
        <time>2011-07-10T12:38:14Z</time>
      </trkpt>
      <trkpt lat="44.39528" lon="6.23229">
        <ele>1197.4594727</ele>
        <time>2011-07-10T12:38:18Z</time>
      </trkpt>
      <trkpt lat="44.39539" lon="6.2322">
        <ele>1196.498291</ele>
        <time>2011-07-10T12:38:30Z</time>
      </trkpt>
      <trkpt lat="44.39552" lon="6.2321">
        <ele>1197.4594727</ele>
        <time>2011-07-10T12:38:43Z</time>
      </trkpt>
      <trkpt lat="44.39558" lon="6.23204">
        <ele>1197.4594727</ele>
        <time>2011-07-10T12:38:49Z</time>
      </trkpt>
      <trkpt lat="44.39568" lon="6.23198">
        <ele>1197.9401855</ele>
        <time>2011-07-10T12:39:00Z</time>
      </trkpt>
      <trkpt lat="44.39592" lon="6.23189">
        <ele>1197.9401855</ele>
        <time>2011-07-10T12:39:20Z</time>
      </trkpt>
      <trkpt lat="44.39611" lon="6.23186">
        <ele>1198.4206543</ele>
        <time>2011-07-10T12:39:36Z</time>
      </trkpt>
      <trkpt lat="44.39624" lon="6.23188">
        <ele>1198.9013672</ele>
        <time>2011-07-10T12:39:49Z</time>
      </trkpt>
      <trkpt lat="44.39639" lon="6.2319">
        <ele>1199.3820801</ele>
        <time>2011-07-10T12:40:03Z</time>
      </trkpt>
      <trkpt lat="44.3965" lon="6.23186">
        <ele>1199.862793</ele>
        <time>2011-07-10T12:40:10Z</time>
      </trkpt>
      <trkpt lat="44.39668" lon="6.23184">
        <ele>1200.8239746</ele>
        <time>2011-07-10T12:40:26Z</time>
      </trkpt>
      <trkpt lat="44.39683" lon="6.23176">
        <ele>1199.862793</ele>
        <time>2011-07-10T12:40:42Z</time>
      </trkpt>
      <trkpt lat="44.39694" lon="6.2317">
        <ele>1199.862793</ele>
        <time>2011-07-10T12:40:55Z</time>
      </trkpt>
      <trkpt lat="44.39703" lon="6.23163">
        <ele>1198.9013672</ele>
        <time>2011-07-10T12:41:04Z</time>
      </trkpt>
      <trkpt lat="44.39707" lon="6.23163">
        <ele>1198.9013672</ele>
        <time>2011-07-10T12:41:06Z</time>
      </trkpt>
      <trkpt lat="44.39717" lon="6.23157">
        <ele>1198.4206543</ele>
        <time>2011-07-10T12:41:14Z</time>
      </trkpt>
      <trkpt lat="44.39729" lon="6.23146">
        <ele>1197.4594727</ele>
        <time>2011-07-10T12:41:26Z</time>
      </trkpt>
      <trkpt lat="44.39739" lon="6.23139">
        <ele>1197.4594727</ele>
        <time>2011-07-10T12:41:39Z</time>
      </trkpt>
      <trkpt lat="44.39741" lon="6.23137">
        <ele>1196.9787598</ele>
        <time>2011-07-10T12:41:42Z</time>
      </trkpt>
      <trkpt lat="44.39752" lon="6.23126">
        <ele>1196.0175781</ele>
        <time>2011-07-10T12:41:53Z</time>
      </trkpt>
      <trkpt lat="44.39758" lon="6.23117">
        <ele>1195.5366211</ele>
        <time>2011-07-10T12:42:03Z</time>
      </trkpt>
      <trkpt lat="44.39767" lon="6.23105">
        <ele>1195.0559082</ele>
        <time>2011-07-10T12:42:14Z</time>
      </trkpt>
      <trkpt lat="44.39779" lon="6.23102">
        <ele>1193.1333008</ele>
        <time>2011-07-10T12:42:27Z</time>
      </trkpt>
      <trkpt lat="44.39787" lon="6.23101">
        <ele>1192.1721191</ele>
        <time>2011-07-10T12:42:35Z</time>
      </trkpt>
      <trkpt lat="44.39796" lon="6.23104">
        <ele>1189.7687988</ele>
        <time>2011-07-10T12:42:47Z</time>
      </trkpt>
      <trkpt lat="44.39796" lon="6.23103">
        <ele>1189.2880859</ele>
        <time>2011-07-10T12:42:49Z</time>
      </trkpt>
      <trkpt lat="44.39815" lon="6.231">
        <ele>1187.3654785</ele>
        <time>2011-07-10T12:43:03Z</time>
      </trkpt>
      <trkpt lat="44.39821" lon="6.23099">
        <ele>1186.8847656</ele>
        <time>2011-07-10T12:43:08Z</time>
      </trkpt>
      <trkpt lat="44.39831" lon="6.23095">
        <ele>1185.923584</ele>
        <time>2011-07-10T12:43:15Z</time>
      </trkpt>
      <trkpt lat="44.39849" lon="6.23087">
        <ele>1184.4816895</ele>
        <time>2011-07-10T12:43:33Z</time>
      </trkpt>
      <trkpt lat="44.39864" lon="6.23082">
        <ele>1184.0009766</ele>
        <time>2011-07-10T12:43:46Z</time>
      </trkpt>
      <trkpt lat="44.39869" lon="6.23077">
        <ele>1183.0395508</ele>
        <time>2011-07-10T12:43:52Z</time>
      </trkpt>
      <trkpt lat="44.39883" lon="6.23065">
        <ele>1183.5202637</ele>
        <time>2011-07-10T12:44:08Z</time>
      </trkpt>
      <trkpt lat="44.39896" lon="6.23051">
        <ele>1182.559082</ele>
        <time>2011-07-10T12:44:23Z</time>
      </trkpt>
      <trkpt lat="44.3991" lon="6.23037">
        <ele>1181.5976563</ele>
        <time>2011-07-10T12:44:38Z</time>
      </trkpt>
      <trkpt lat="44.39915" lon="6.23035">
        <ele>1181.5976563</ele>
        <time>2011-07-10T12:44:41Z</time>
      </trkpt>
      <trkpt lat="44.39919" lon="6.23033">
        <ele>1180.6364746</ele>
        <time>2011-07-10T12:44:45Z</time>
      </trkpt>
      <trkpt lat="44.39923" lon="6.23032">
        <ele>1179.6748047</ele>
        <time>2011-07-10T12:44:49Z</time>
      </trkpt>
      <trkpt lat="44.39925" lon="6.23032">
        <ele>1180.1557617</ele>
        <time>2011-07-10T12:44:51Z</time>
      </trkpt>
      <trkpt lat="44.3993" lon="6.2303">
        <ele>1178.713623</ele>
        <time>2011-07-10T12:44:55Z</time>
      </trkpt>
      <trkpt lat="44.39934" lon="6.23027">
        <ele>1178.713623</ele>
        <time>2011-07-10T12:45:01Z</time>
      </trkpt>
      <trkpt lat="44.39941" lon="6.23019">
        <ele>1177.2717285</ele>
        <time>2011-07-10T12:45:10Z</time>
      </trkpt>
      <trkpt lat="44.3995" lon="6.23015">
        <ele>1177.2717285</ele>
        <time>2011-07-10T12:45:21Z</time>
      </trkpt>
      <trkpt lat="44.39966" lon="6.23">
        <ele>1174.8684082</ele>
        <time>2011-07-10T12:45:37Z</time>
      </trkpt>
      <trkpt lat="44.39972" lon="6.22991">
        <ele>1175.348877</ele>
        <time>2011-07-10T12:45:49Z</time>
      </trkpt>
      <trkpt lat="44.39989" lon="6.2298">
        <ele>1172.9458008</ele>
        <time>2011-07-10T12:46:05Z</time>
      </trkpt>
      <trkpt lat="44.40001" lon="6.22968">
        <ele>1171.5036621</ele>
        <time>2011-07-10T12:46:19Z</time>
      </trkpt>
      <trkpt lat="44.40006" lon="6.22966">
        <ele>1170.0617676</ele>
        <time>2011-07-10T12:46:25Z</time>
      </trkpt>
      <trkpt lat="44.40011" lon="6.22963">
        <ele>1170.0617676</ele>
        <time>2011-07-10T12:46:29Z</time>
      </trkpt>
      <trkpt lat="44.40026" lon="6.22951">
        <ele>1168.619873</ele>
        <time>2011-07-10T12:46:45Z</time>
      </trkpt>
      <trkpt lat="44.40039" lon="6.22946">
        <ele>1167.1779785</ele>
        <time>2011-07-10T12:46:57Z</time>
      </trkpt>
      <trkpt lat="44.40043" lon="6.22943">
        <ele>1166.6972656</ele>
        <time>2011-07-10T12:47:01Z</time>
      </trkpt>
      <trkpt lat="44.40053" lon="6.22933">
        <ele>1165.2553711</ele>
        <time>2011-07-10T12:47:14Z</time>
      </trkpt>
      <trkpt lat="44.4006" lon="6.22926">
        <ele>1164.2939453</ele>
        <time>2011-07-10T12:47:23Z</time>
      </trkpt>
      <trkpt lat="44.40077" lon="6.22911">
        <ele>1161.4099121</ele>
        <time>2011-07-10T12:47:41Z</time>
      </trkpt>
      <trkpt lat="44.4008" lon="6.22898">
        <ele>1159.9677734</ele>
        <time>2011-07-10T12:47:52Z</time>
      </trkpt>
      <trkpt lat="44.40084" lon="6.22887">
        <ele>1158.0454102</ele>
        <time>2011-07-10T12:48:00Z</time>
      </trkpt>
      <trkpt lat="44.40077" lon="6.22868">
        <ele>1155.161377</ele>
        <time>2011-07-10T12:48:12Z</time>
      </trkpt>
      <trkpt lat="44.40077" lon="6.22867">
        <ele>1155.161377</ele>
        <time>2011-07-10T12:48:13Z</time>
      </trkpt>
      <trkpt lat="44.40077" lon="6.22865">
        <ele>1154.6806641</ele>
        <time>2011-07-10T12:48:15Z</time>
      </trkpt>
      <trkpt lat="44.40078" lon="6.22844">
        <ele>1151.796875</ele>
        <time>2011-07-10T12:48:27Z</time>
      </trkpt>
      <trkpt lat="44.40087" lon="6.22822">
        <ele>1148.9128418</ele>
        <time>2011-07-10T12:48:40Z</time>
      </trkpt>
      <trkpt lat="44.40091" lon="6.22819">
        <ele>1148.4321289</ele>
        <time>2011-07-10T12:48:44Z</time>
      </trkpt>
      <trkpt lat="44.401" lon="6.22804">
        <ele>1145.5480957</ele>
        <time>2011-07-10T12:48:55Z</time>
      </trkpt>
      <trkpt lat="44.40103" lon="6.22795">
        <ele>1144.1062012</ele>
        <time>2011-07-10T12:49:01Z</time>
      </trkpt>
      <trkpt lat="44.40108" lon="6.22773">
        <ele>1140.2609863</ele>
        <time>2011-07-10T12:49:15Z</time>
      </trkpt>
      <trkpt lat="44.40108" lon="6.2277">
        <ele>1139.7802734</ele>
        <time>2011-07-10T12:49:17Z</time>
      </trkpt>
      <trkpt lat="44.40109" lon="6.22767">
        <ele>1139.7802734</ele>
        <time>2011-07-10T12:49:19Z</time>
      </trkpt>
      <trkpt lat="44.40107" lon="6.22758">
        <ele>1138.8190918</ele>
        <time>2011-07-10T12:49:24Z</time>
      </trkpt>
      <trkpt lat="44.4011" lon="6.22744">
        <ele>1136.8962402</ele>
        <time>2011-07-10T12:49:32Z</time>
      </trkpt>
      <trkpt lat="44.40116" lon="6.22726">
        <ele>1137.3769531</ele>
        <time>2011-07-10T12:49:44Z</time>
      </trkpt>
      <trkpt lat="44.40119" lon="6.22718">
        <ele>1135.4543457</ele>
        <time>2011-07-10T12:49:48Z</time>
      </trkpt>
      <trkpt lat="44.40121" lon="6.22711">
        <ele>1133.5317383</ele>
        <time>2011-07-10T12:49:52Z</time>
      </trkpt>
      <trkpt lat="44.40122" lon="6.22701">
        <ele>1131.128418</ele>
        <time>2011-07-10T12:49:59Z</time>
      </trkpt>
      <trkpt lat="44.40128" lon="6.22683">
        <ele>1129.2055664</ele>
        <time>2011-07-10T12:50:11Z</time>
      </trkpt>
      <trkpt lat="44.40133" lon="6.22677">
        <ele>1127.7636719</ele>
        <time>2011-07-10T12:50:17Z</time>
      </trkpt>
      <trkpt lat="44.40145" lon="6.2266">
        <ele>1125.3603516</ele>
        <time>2011-07-10T12:50:32Z</time>
      </trkpt>
      <trkpt lat="44.40153" lon="6.22647">
        <ele>1122.4765625</ele>
        <time>2011-07-10T12:50:42Z</time>
      </trkpt>
      <trkpt lat="44.40163" lon="6.22632">
        <ele>1120.0732422</ele>
        <time>2011-07-10T12:50:52Z</time>
      </trkpt>
      <trkpt lat="44.40164" lon="6.22626">
        <ele>1119.5927734</ele>
        <time>2011-07-10T12:50:56Z</time>
      </trkpt>
      <trkpt lat="44.40166" lon="6.22615">
        <ele>1117.6699219</ele>
        <time>2011-07-10T12:51:03Z</time>
      </trkpt>
      <trkpt lat="44.40167" lon="6.22606">
        <ele>1116.2280273</ele>
        <time>2011-07-10T12:51:08Z</time>
      </trkpt>
      <trkpt lat="44.40173" lon="6.22584">
        <ele>1112.3825684</ele>
        <time>2011-07-10T12:51:20Z</time>
      </trkpt>
      <trkpt lat="44.4018" lon="6.22564">
        <ele>1109.4987793</ele>
        <time>2011-07-10T12:51:31Z</time>
      </trkpt>
      <trkpt lat="44.40178" lon="6.22552">
        <ele>1107.5761719</ele>
        <time>2011-07-10T12:51:38Z</time>
      </trkpt>
      <trkpt lat="44.40176" lon="6.22549">
        <ele>1106.1340332</ele>
        <time>2011-07-10T12:51:41Z</time>
      </trkpt>
      <trkpt lat="44.40174" lon="6.22548">
        <ele>1106.6147461</ele>
        <time>2011-07-10T12:52:03Z</time>
      </trkpt>
      <trkpt lat="44.40173" lon="6.2255">
        <ele>1105.6535645</ele>
        <time>2011-07-10T12:52:35Z</time>
      </trkpt>
      <trkpt lat="44.40151" lon="6.22558">
        <ele>1105.6535645</ele>
        <time>2011-07-10T12:52:52Z</time>
      </trkpt>
      <trkpt lat="44.40132" lon="6.22568">
        <ele>1105.1728516</ele>
        <time>2011-07-10T12:53:09Z</time>
      </trkpt>
      <trkpt lat="44.401" lon="6.22582">
        <ele>1104.2116699</ele>
        <time>2011-07-10T12:53:37Z</time>
      </trkpt>
      <trkpt lat="44.40083" lon="6.22587">
        <ele>1103.730957</ele>
        <time>2011-07-10T12:53:52Z</time>
      </trkpt>
      <trkpt lat="44.4008" lon="6.22586">
        <ele>1103.2502441</ele>
        <time>2011-07-10T12:53:55Z</time>
      </trkpt>
      <trkpt lat="44.40067" lon="6.2259">
        <ele>1102.2888184</ele>
        <time>2011-07-10T12:54:05Z</time>
      </trkpt>
      <trkpt lat="44.40047" lon="6.22591">
        <ele>1102.7695313</ele>
        <time>2011-07-10T12:54:20Z</time>
      </trkpt>
      <trkpt lat="44.40046" lon="6.2259">
        <ele>1102.7695313</ele>
        <time>2011-07-10T12:54:21Z</time>
      </trkpt>
      <trkpt lat="44.40038" lon="6.22586">
        <ele>1103.2502441</ele>
        <time>2011-07-10T12:54:26Z</time>
      </trkpt>
      <trkpt lat="44.40035" lon="6.22585">
        <ele>1101.8083496</ele>
        <time>2011-07-10T12:54:28Z</time>
      </trkpt>
      <trkpt lat="44.40015" lon="6.2258">
        <ele>1101.3276367</ele>
        <time>2011-07-10T12:54:42Z</time>
      </trkpt>
      <trkpt lat="44.39997" lon="6.22573">
        <ele>1101.3276367</ele>
        <time>2011-07-10T12:54:55Z</time>
      </trkpt>
      <trkpt lat="44.39972" lon="6.22565">
        <ele>1100.3664551</ele>
        <time>2011-07-10T12:55:13Z</time>
      </trkpt>
      <trkpt lat="44.39957" lon="6.22561">
        <ele>1099.4047852</ele>
        <time>2011-07-10T12:55:25Z</time>
      </trkpt>
      <trkpt lat="44.39935" lon="6.2255">
        <ele>1099.885498</ele>
        <time>2011-07-10T12:55:44Z</time>
      </trkpt>
      <trkpt lat="44.39912" lon="6.22535">
        <ele>1099.4047852</ele>
        <time>2011-07-10T12:56:02Z</time>
      </trkpt>
      <trkpt lat="44.39899" lon="6.22523">
        <ele>1098.9240723</ele>
        <time>2011-07-10T12:56:14Z</time>
      </trkpt>
      <trkpt lat="44.39894" lon="6.2252">
        <ele>1098.4433594</ele>
        <time>2011-07-10T12:56:18Z</time>
      </trkpt>
      <trkpt lat="44.3987" lon="6.22506">
        <ele>1097.9628906</ele>
        <time>2011-07-10T12:56:37Z</time>
      </trkpt>
      <trkpt lat="44.39865" lon="6.22507">
        <ele>1097.9628906</ele>
        <time>2011-07-10T12:56:54Z</time>
      </trkpt>
      <trkpt lat="44.39856" lon="6.22518">
        <ele>1097.4821777</ele>
        <time>2011-07-10T12:57:18Z</time>
      </trkpt>
      <trkpt lat="44.39845" lon="6.22549">
        <ele>1097.0014648</ele>
        <time>2011-07-10T12:57:37Z</time>
      </trkpt>
      <trkpt lat="44.3983" lon="6.22561">
        <ele>1097.0014648</ele>
        <time>2011-07-10T12:57:51Z</time>
      </trkpt>
      <trkpt lat="44.39793" lon="6.22557">
        <ele>1095.5595703</ele>
        <time>2011-07-10T12:58:18Z</time>
      </trkpt>
      <trkpt lat="44.39789" lon="6.22559">
        <ele>1095.0788574</ele>
        <time>2011-07-10T12:58:21Z</time>
      </trkpt>
      <trkpt lat="44.39765" lon="6.22556">
        <ele>1094.1176758</ele>
        <time>2011-07-10T12:58:40Z</time>
      </trkpt>
      <trkpt lat="44.39762" lon="6.22538">
        <ele>1094.1176758</ele>
        <time>2011-07-10T12:58:51Z</time>
      </trkpt>
      <trkpt lat="44.39761" lon="6.22531">
        <ele>1093.6369629</ele>
        <time>2011-07-10T12:58:55Z</time>
      </trkpt>
      <trkpt lat="44.39763" lon="6.22503">
        <ele>1093.15625</ele>
        <time>2011-07-10T12:59:20Z</time>
      </trkpt>
      <trkpt lat="44.39765" lon="6.22499">
        <ele>1093.15625</ele>
        <time>2011-07-10T12:59:44Z</time>
      </trkpt>
      <trkpt lat="44.39766" lon="6.22499">
        <ele>1093.6369629</ele>
        <time>2011-07-10T12:59:56Z</time>
      </trkpt>
    </trkseg>
  </trk>
</gpx>